Home > Products > Valid Products > MTR

000
SAUS46 KLOX 200657
MTR9L2
METAR K9L2 200655Z AUTO 23014KT 10SM CLR 19/09 A2986 RMK AO2 SLP093
T01940089 TSNO $





000
SAUS46 KLOX 200654
MTRMWS
METAR KMWS 200645Z 21003G04KT 12/M02 RMK SNOW DEPTH  M





000
SAUS46 KLOX 200654
MTRLAX
METAR KLAX 200653Z 00000KT 10SM OVC021 21/16 A2988 RMK AO2 SLP117
T02060156





000
SAUS46 KLOX 200652
MTRSMX
METAR KSMX 200651Z AUTO 00000KT 10SM BKN019 17/13 A2989 RMK AO2
SLP124 T01720128 TSNO





000
SAUS46 KLOX 200649
MTRSDB
METAR KSDB 200648Z AUTO 24005KT 10SM CLR 15/11 A3001 RMK AO2 SLP111
T01500111 $





000
SAUS46 KLOX 200648
MTRCQT
METAR KCQT 200647Z AUTO 00000KT 10SM OVC020 21/16 A2987 RMK AO2
SLP112 T02110156





000
SAUS46 KLOX 200636
MTRMWS
METAR KMWS 200630Z 23500G00KT MM/M01 RMK SNOW DEPTH  M





000
SAUS46 KLOX 200615
MTRMWS
METAR KMWS 200600Z 22004G06KT 14/M02 RMK SNOW DEPTH  M





000
SAUS46 KLOX 200559
MTR9L2
METAR K9L2 200555Z AUTO 23013KT 10SM CLR 21/10 A2986 RMK AO2 SLP093
T02060100 10306 20206 50016 TSNO $





000
SAUS46 KLOX 200554
MTRMWS
METAR KMWS 200545Z 20006G08KT 14/M02 RMK SNOW DEPTH  M





000
SAUS46 KLOX 200554
MTRLAX
METAR KLAX 200553Z 26005KT 10SM OVC021 21/16 A2988 RMK AO2 SLP117
T02060156 10217 20200 50009





000
SAUS46 KLOX 200553
MTRSMX
METAR KSMX 200551Z AUTO 00000KT 10SM OVC021 18/13 A2989 RMK AO2
SLP123 T01780133 10228 20172 50003 TSNO





000
SAUS46 KLOX 200549
MTRSDB
METAR KSDB 200548Z AUTO 21007KT 10SM CLR 15/12 A3001 RMK AO2 SLP114
T01500117 10244 20150 50009 $





000
SAUS46 KLOX 200548
MTRCQT
METAR KCQT 200547Z AUTO 00000KT 10SM OVC020 21/16 A2987 RMK AO2
SLP113 T02110161 10239 20211 50010





000
SAUS46 KLOX 200536
MTRMWS
METAR KMWS 200530Z 23500G00KT MM/M01 RMK SNOW DEPTH  M





000
SAUS46 KLOX 200515
MTRMWS
METAR KMWS 200500Z 20504G06KT 13/M03 RMK SNOW DEPTH  M





000
SAUS46 KLOX 200457
MTR9L2
METAR K9L2 200455Z AUTO 23016G23KT 10SM CLR 21/09 A2986 RMK AO2
SLP093 T02110094 TSNO $





000
SAUS46 KLOX 200454
MTRMWS
METAR KMWS 200445Z 21504G05KT 13/M02 RMK SNOW DEPTH  M





000
SAUS46 KLOX 200454
MTRLAX
METAR KLAX 200453Z 27007KT 10SM OVC023 21/16 A2989 RMK AO2 SLP118
T02060156





000
SAUS46 KLOX 200453
MTRSMX
METAR KSMX 200451Z AUTO 31003KT 10SM OVC021 18/14 A2991 RMK AO2
SLP128 T01780139 TSNO





000
SAUS46 KLOX 200449
MTRSDB
METAR KSDB 200448Z AUTO 22006KT 9SM 15/12 A3001 RMK AO2 SLP115
T01500117 $





000
SAUS46 KLOX 200448
MTRCQT
METAR KCQT 200447Z AUTO 00000KT 10SM OVC020 21/16 A2988 RMK AO2
SLP115 T02110161





000
SAUS46 KLOX 200436
MTRMWS
METAR KMWS 200430Z 23500G00KT MM/M01 RMK SNOW DEPTH  M





000
SAUS46 KLOX 200415
MTRMWS
METAR KMWS 200400Z 22506G06KT 14/M01 RMK SNOW DEPTH  M





000
SAUS46 KLOX 200359
MTR9L2
METAR K9L2 200355Z AUTO 23018G27KT 10SM CLR 22/09 A2984 RMK AO2 PK
WND 23028/0339 SLP086 T02220094 TSNO $





000
SAUS46 KLOX 200354
MTRMWS
METAR KMWS 200345Z 21006G07KT 13/M02 RMK SNOW DEPTH  M





000
SAUS46 KLOX 200354
MTRLAX
METAR KLAX 200353Z 27006KT 10SM FEW017 OVC023 21/16 A2988 RMK AO2
SLP115 T02060161





000
SAUS46 KLOX 200352
MTRSMX
METAR KSMX 200351Z AUTO 32007KT 10SM OVC021 18/13 A2990 RMK AO2
SLP125 T01780133 TSNO





000
SAUS46 KLOX 200349
MTRSDB
METAR KSDB 200348Z AUTO 20011KT 10SM CLR 17/11 A3000 RMK AO2 SLP111
T01670111 $





000
SAUS46 KLOX 200348
MTRCQT
METAR KCQT 200347Z AUTO 00000KT 10SM OVC020 21/16 A2987 RMK AO2
SLP111 T02110161





000
SAUS46 KLOX 200339
MTRSMX
SPECI KSMX 200338Z AUTO 31005KT 10SM BKN023 17/13 A2989 RMK AO2 TSNO





000
SAUS46 KLOX 200336
MTRMWS
METAR KMWS 200330Z 23500G00KT MM/M01 RMK SNOW DEPTH  M





000
SAUS46 KLOX 200315
MTRMWS
METAR KMWS 200300Z 21004G05KT 14/00 RMK SNOW DEPTH  M





000
SAUS46 KLOX 200300
MTRSMX
SPECI KSMX 200258Z AUTO 31008KT 10SM SCT023 17/13 A2989 RMK AO2 TSNO





000
SAUS46 KLOX 200257
MTR9L2
METAR K9L2 200255Z AUTO 22017G24KT 10SM CLR 24/06 A2981 RMK AO2 PK
WND 23030/0216 SLP077 T02440056 53011 TSNO $





000
SAUS46 KLOX 200254
MTRMWS
METAR KMWS 200245Z 20005G07KT 15/00 RMK SNOW DEPTH  M





000
SAUS46 KLOX 200254
MTRLAX
METAR KLAX 200253Z 26009KT 10SM BKN019 21/16 A2986 RMK AO2 SLP108
T02060161 55000





000
SAUS46 KLOX 200253
MTRSMX
METAR KSMX 200251Z 30007KT 10SM BKN023 17/13 A2989 RMK AO2 SLP121
T01720133 53007





000
SAUS46 KLOX 200249
MTRSDB
METAR KSDB 200248Z AUTO 18014KT 10SM CLR 17/11 A2998 RMK AO2 SLP106
T01720111 53005 $





000
SAUS46 KLOX 200248
MTRCQT
METAR KCQT 200247Z AUTO VRB03KT 10SM BKN018 21/16 A2984 RMK AO2
SLP103 T02110161 53002





000
SAUS46 KLOX 200236
MTRMWS
METAR KMWS 200230Z 23500G00KT MM/01 RMK SNOW DEPTH  M





000
SAUS46 KLOX 200215
MTRMWS
METAR KMWS 200200Z 22008G09KT 18/02 RMK SNOW DEPTH  M





000
SAUS46 KLOX 200206
MTRCQT
SPECI KCQT 200205Z AUTO 26004KT 10SM BKN021 22/17 A2984 RMK AO2
T02170167





000
SAUS46 KLOX 200159
MTR9L2
METAR K9L2 200155Z AUTO 22024G31KT 10SM CLR 27/05 A2978 RMK AO2 PK
WND 22033/0112 SLP066 T02670050 TSNO $





000
SAUS46 KLOX 200154
MTRMWS
METAR KMWS 200145Z 21507G09KT 19/05 RMK SNOW DEPTH  M





000
SAUS46 KLOX 200154
MTRLAX
METAR KLAX 200153Z 27010KT 10SM OVC017 21/16 A2985 RMK AO2 SLP106
T02110161





000
SAUS46 KLOX 200154
MTRSMX
METAR KSMX 200151Z COR 30012KT 10SM SCT023 19/13 A2987 RMK AO2
SLP115 T01940128





000
SAUS46 KLOX 200152
MTRSMX
METAR KSMX 200151Z 30012KT 10SM CLR 19/13 A2987 RMK AO2 SLP115
T01940128





000
SAUS46 KLOX 200149
MTRCQT
METAR KCQT 200147Z AUTO VRB03KT 10SM FEW020 22/17 A2984 RMK AO2
SLP100 T02170167





000
SAUS46 KLOX 200149
MTRSDB
METAR KSDB 200148Z AUTO 18017G23KT 10SM CLR 20/09 A2996 RMK AO2
SLP098 T02000089 $





000
SAUS46 KLOX 200136
MTRMWS
METAR KMWS 200130Z 23500G00KT MM/04 RMK SNOW DEPTH  M





000
SAUS46 KLOX 200115
MTRMWS
METAR KMWS 200100Z 20507G08KT 18/09 RMK SNOW DEPTH  M





000
SAUS46 KLOX 200057
MTR9L2
METAR K9L2 200055Z AUTO 22025G33KT 10SM CLR 29/02 A2978 RMK AO2 PK
WND 22033/0055 SLP063 T02890022 TSNO $





000
SAUS46 KLOX 200054
MTRMWS
METAR KMWS 200045Z 21506G08KT 18/12 RMK SNOW DEPTH  M





000
SAUS46 KLOX 200054
MTRLAX
METAR KLAX 200053Z 25010KT 10SM BKN017 BKN150 21/16 A2985 RMK AO2
SLP107 T02110161





000
SAUS46 KLOX 200053
MTRSMX
METAR KSMX 200051Z 31012KT 10SM FEW014 22/13 A2986 RMK AO2 SLP112
T02170128





000
SAUS46 KLOX 200049
MTRSDB
METAR KSDB 200048Z AUTO 16018G24KT 10SM CLR 22/09 A2996 RMK AO2 PK
WND 17028/0036 SLP094 T02220089 $





000
SAUS46 KLOX 200048
MTRCQT
METAR KCQT 200047Z AUTO VRB03KT 10SM FEW021 23/17 A2984 RMK AO2
SLP102 T02330167





000
SAUS46 KLOX 200036
MTRMWS
METAR KMWS 200030Z 23500G00KT MM/13 RMK SNOW DEPTH  M





000
SAUS46 KLOX 200015
MTRMWS
METAR KMWS 200000Z 21507G09KT 20/13 RMK SNOW DEPTH  M





000
SAUS46 KLOX 192359
MTR9L2
METAR K9L2 192355Z AUTO 23024G30KT 10SM CLR 31/01 A2978 RMK AO2 PK
WND 21031/2338 SLP063 T03060011 10328 20300 56014 TSNO $





000
SAUS46 KLOX 192357
MTRMWS
METAR KMWS 192345Z 21009G11KT 20/13 RMK SNOW DEPTH  M





000
SAUS46 KLOX 192354
MTRLAX
METAR KLAX 192353Z 26013KT 10SM OVC015 22/17 A2986 RMK AO2 SLP108
T02170167 10256 20217 56008





000
SAUS46 KLOX 192352
MTRSMX
METAR KSMX 192351Z 31010KT 10SM CLR 22/13 A2986 RMK AO2 SLP113
T02220133 10244 20189 56013





000
SAUS46 KLOX 192349
MTRSDB
METAR KSDB 192348Z AUTO 16015G24KT 10SM CLR 24/07 A2996 RMK AO2
SLP092 T02440067 10267 20217 56012 $





000
SAUS46 KLOX 192349
MTRCQT
METAR KCQT 192347Z AUTO 25004KT 10SM FEW023 24/17 A2984 RMK AO2
SLP101 T02390167 10278 20239 56006





000
SAUS46 KLOX 192336
MTRMWS
METAR KMWS 192330Z 23500G00KT MM/13 RMK SNOW DEPTH  M





000
SAUS46 KLOX 192324
MTRLAX
SPECI KLAX 192323Z 27012KT 10SM BKN015 BKN150 22/17 A2985 RMK AO2





000
SAUS46 KLOX 192315
MTRMWS
METAR KMWS 192300Z 22509G12KT 21/12 RMK SNOW DEPTH  M





000
SAUS46 KLOX 192257
MTR9L2
METAR K9L2 192255Z AUTO 23020G29KT 10SM CLR 32/01 A2978 RMK AO2 PK
WND 22029/2246 SLP064 T03220006 TSNO $





000
SAUS46 KLOX 192254
MTRMWS
METAR KMWS 192245Z 22007G10KT 21/11 RMK SNOW DEPTH  M





000
SAUS46 KLOX 192254
MTRLAX
METAR KLAX 192253Z 26011KT 10SM FEW015 SCT150 22/17 A2986 RMK AO2
SLP108 T02220167





000
SAUS46 KLOX 192252
MTRSMX
METAR KSMX 192251Z 30008G14KT 10SM FEW025 23/14 A2987 RMK AO2 SLP115
T02330139





000
SAUS46 KLOX 192249
MTRSDB
METAR KSDB 192248Z AUTO 15015G24KT 120V190 10SM CLR 26/05 A2997 RMK
AO2 PK WND 16026/2222 SLP092 T02560050 $





000
SAUS46 KLOX 192249
MTRCQT
METAR KCQT 192247Z AUTO VRB03KT 10SM CLR 25/17 A2984 RMK AO2 SLP102
T02500167





000
SAUS46 KLOX 192236
MTRMWS
METAR KMWS 192230Z 23500G00KT MM/11 RMK SNOW DEPTH  M





000
SAUS46 KLOX 192215
MTRMWS
METAR KMWS 192200Z 23008G09KT 21/10 RMK SNOW DEPTH  M





000
SAUS46 KLOX 192157
MTR9L2
METAR K9L2 192155Z AUTO 23021G31KT 10SM FEW100 33/00 A2980 RMK AO2
PK WND 23031/2155 SLP068 T03280000 TSNO $





000
SAUS46 KLOX 192154
MTRMWS
METAR KMWS 192145Z 23007G11KT 22/11 RMK SNOW DEPTH  M





000
SAUS46 KLOX 192154
MTRLAX
METAR KLAX 192153Z 26012KT 10SM SCT050 BKN180 BKN250 23/17 A2987 RMK
AO2 SLP113 T02280167





000
SAUS46 KLOX 192152
MTRSMX
METAR KSMX 192151Z 30010KT 10SM SCT023 23/14 A2989 RMK AO2 PK WND
08067/2123 SLP120 T02330139





000
SAUS46 KLOX 192149
MTRSDB
METAR KSDB 192148Z AUTO 18018G25KT 10SM CLR 26/06 A2998 RMK AO2 PK
WND 16030/2133 SLP097 T02560061 $





000
SAUS46 KLOX 192148
MTRCQT
METAR KCQT 192147Z AUTO 10SM CLR 27/17 A2985 RMK AO2 SLP104
T02720167





000
SAUS46 KLOX 192143
MTRSMX
SPECI KSMX 192142Z AUTO 30008KT 10SM SCT025 23/14 A2989 RMK AO2 PK
WND 08067/2123 TSNO





000
SAUS46 KLOX 192136
MTRMWS
METAR KMWS 192130Z 23500G00KT MM/08 RMK SNOW DEPTH  M





000
SAUS46 KLOX 192115
MTRMWS
METAR KMWS 192100Z 20505G08KT 22/12 RMK SNOW DEPTH  M





000
SAUS46 KLOX 192059
MTR9L2
METAR K9L2 192055Z AUTO 21018G26KT 10SM CLR 31/00 A2982 RMK AO2 PK
WND 23029/2015 SLP077 T03110000 56011 TSNO $





000
SAUS46 KLOX 192054
MTRLAX
METAR KLAX 192053Z 24010G15KT 10SM FEW022 SCT035 BKN180 BKN250 24/17
A2988 RMK AO2 SLP116 T02390167 58010





000
SAUS46 KLOX 192054
MTRMWS
METAR KMWS 192045Z 22006G09KT 23/12 RMK SNOW DEPTH  M





000
SAUS46 KLOX 192052
MTRSMX
METAR KSMX 192051Z VRB06KT 10SM BKN025 22/14 A2990 RMK AO2 SLP126
T02220139 58012





000
SAUS46 KLOX 192049
MTRSDB
METAR KSDB 192048Z AUTO 18016G27KT 10SM CLR 24/09 A3000 RMK AO2 PK
WND 18027/2042 SLP103 T02440089 58004 $





000
SAUS46 KLOX 192048
MTRCQT
METAR KCQT 192047Z AUTO VRB05KT 10SM CLR 27/16 A2986 RMK AO2 SLP107
T02720156 58016





000
SAUS46 KLOX 192036
MTRMWS
METAR KMWS 192030Z 23500G00KT MM/12 RMK SNOW DEPTH  M





000
SAUS46 KLOX 192015
MTRMWS
METAR KMWS 192000Z 21005G09KT 22/11 RMK SNOW DEPTH  M





000
SAUS46 KLOX 191956
MTR9L2
METAR K9L2 191955Z AUTO 23022G28KT 10SM CLR 32/02 A2983 RMK AO2 PK
WND 22028/1949 SLP077 T03170017 TSNO $





000
SAUS46 KLOX 191954
MTRMWS
METAR KMWS 191945Z 21505G07KT 22/08 RMK SNOW DEPTH  M





000
SAUS46 KLOX 191954
MTRLAX
METAR KLAX 191953Z 28012KT 10SM FEW020 SCT030 BKN160 24/17 A2989 RMK
AO2 SLP120 T02440167





000
SAUS46 KLOX 191952
MTRSMX
METAR KSMX 191951Z 32006KT 10SM BKN019 OVC024 21/13 A2993 RMK AO2
SLP134 T02060133





000
SAUS46 KLOX 191949
MTRSDB
METAR KSDB 191948Z AUTO 18017G25KT 10SM 24/10 A3000 RMK AO2 SLP104
T02390100 $





000
SAUS46 KLOX 191948
MTRCQT
METAR KCQT 191947Z AUTO 21004KT 10SM CLR 27/15 A2987 RMK AO2 SLP113
T02670150





000
SAUS46 KLOX 191936
MTRMWS
METAR KMWS 191930Z 23500G00KT MM/09 RMK SNOW DEPTH  M





000
SAUS46 KLOX 191915
MTRMWS
METAR KMWS 191900Z 21507G12KT 23/10 RMK SNOW DEPTH  M





000
SAUS46 KLOX 191857
MTRMWS
METAR KMWS 191845Z 23506G08KT 23/06 RMK SNOW DEPTH  M





000
SAUS46 KLOX 191857
MTR9L2
METAR K9L2 191855Z AUTO 23016KT 10SM CLR 33/M02 A2984 RMK AO2 SLP081
T03281022 TSNO $





000
SAUS46 KLOX 191854
MTRLAX
METAR KLAX 191853Z 00000KT 10SM FEW020 SCT032 BKN160 25/15 A2990 RMK
AO2 SLP125 T02500150





000
SAUS46 KLOX 191853
MTRSMX
METAR KSMX 191851Z 29005KT 10SM OVC015 19/13 A2994 RMK AO2 SLP139
T01890133





000
SAUS46 KLOX 191849
MTRSDB
METAR KSDB 191848Z AUTO 21011KT 10SM CLR 23/08 A3002 RMK AO2 SLP110
T02330078





000
SAUS46 KLOX 191848
MTRCQT
METAR KCQT 191847Z AUTO 00000KT 10SM CLR 25/16 A2989 RMK AO2 SLP119
T02500156





000
SAUS46 KLOX 191836
MTRMWS
METAR KMWS 191830Z 23500G00KT MM/07 RMK SNOW DEPTH  M





000
SAUS46 KLOX 191815
MTRMWS
METAR KMWS 191800Z 23504G06KT 24/08 RMK SNOW DEPTH  M





000
SAUS46 KLOX 191810
MTRCQT
SPECI KCQT 191809Z AUTO 27003KT 10SM SCT030 26/16 A2990 RMK AO2
T02560156





000
SAUS46 KLOX 191757
MTR9L2
METAR K9L2 191755Z AUTO 24013KT 10SM CLR 30/01 A2986 RMK AO2 SLP088
T03000006 10300 20206 55000 TSNO $





000
SAUS46 KLOX 191754
MTRMWS
METAR KMWS 191745Z 25004G05KT 25/05 RMK SNOW DEPTH  M





000
SAUS46 KLOX 191754
MTRLAX
METAR KLAX 191753Z VRB03KT 10SM FEW020 BKN030 24/14 A2991 RMK AO2
SLP126 T02390144 10239 20206 51007





000
SAUS46 KLOX 191753
MTRSMX
METAR KSMX 191751Z 00000KT 10SM OVC017 19/13 A2994 RMK AO2 SLP138
60000 T01890133 10189 20156 51010





000
SAUS46 KLOX 191749
MTRSDB
METAR KSDB 191748Z AUTO 19012G17KT 10SM CLR 21/07 A3002 RMK AO2
SLP111 T02110072 10222 20161 51004





000
SAUS46 KLOX 191748
MTRCQT
METAR KCQT 191747Z AUTO 14005KT 10SM OVC028 24/16 A2990 RMK AO2
SLP123 T02440156 10244 20211 51009





000
SAUS46 KLOX 191741
MTRLAX
SPECI KLAX 191740Z VRB05KT 10SM FEW020 BKN030 23/15 A2991 RMK AO2





000
SAUS46 KLOX 191736
MTRMWS
METAR KMWS 191730Z 23500G00KT MM/01 RMK SNOW DEPTH  M





000
SAUS46 KLOX 191715
MTRMWS
METAR KMWS 191700Z 25003G03KT 23/02 RMK SNOW DEPTH  M





000
SAUS46 KLOX 191657
MTRMWS
METAR KMWS 191645Z 25504G06KT 22/M02 RMK SNOW DEPTH  M





000
SAUS46 KLOX 191656
MTR9L2
METAR K9L2 191655Z AUTO 23014G21KT 10SM CLR 28/01 A2985 RMK AO2
SLP087 T02830006 TSNO $





000
SAUS46 KLOX 191654
MTRLAX
METAR KLAX 191653Z 13006KT 10SM FEW018 OVC026 22/15 A2990 RMK AO2
SLP124 T02220150





000
SAUS46 KLOX 191652
MTRSMX
METAR KSMX 191651Z VRB03KT 10SM OVC012 18/13 A2993 RMK AO2 SLP135
T01780133





000
SAUS46 KLOX 191649
MTRSDB
METAR KSDB 191648Z AUTO 22011KT 10SM CLR 22/05 A3001 RMK AO2 SLP107
T02170050





000
SAUS46 KLOX 191648
MTRCQT
METAR KCQT 191647Z AUTO VRB03KT 10SM OVC026 23/15 A2990 RMK AO2
SLP122 T02280150





000
SAUS46 KLOX 191636
MTRMWS
METAR KMWS 191630Z 23500G00KT MM/M03 RMK SNOW DEPTH  M





000
SAUS46 KLOX 191615
MTRMWS
METAR KMWS 191600Z 23502G04KT 22/M03 RMK SNOW DEPTH  M





000
SAUS46 KLOX 191559
MTR9L2
METAR K9L2 191555Z AUTO 23014KT 10SM CLR 27/02 A2985 RMK AO2 SLP088
T02670017 TSNO $





000
SAUS46 KLOX 191554
MTRLAX
METAR KLAX 191553Z 11005KT 10SM FEW018 OVC024 22/15 A2990 RMK AO2
SLP123 T02170150





000
SAUS46 KLOX 191554
MTRMWS
METAR KMWS 191545Z 17503G04KT 21/M04 RMK SNOW DEPTH  M





000
SAUS46 KLOX 191553
MTRSMX
METAR KSMX 191551Z 21005KT 10SM OVC008 17/14 A2992 RMK AO2 RAB04E31
CIG 005V011 SLP133 P0000 T01670139





000
SAUS46 KLOX 191549
MTRSDB
METAR KSDB 191548Z AUTO 21011KT 10SM CLR 19/06 A3001 RMK AO2 SLP109
T01940061





000
SAUS46 KLOX 191548
MTRCQT
METAR KCQT 191547Z AUTO VRB03KT 10SM OVC023 22/16 A2989 RMK AO2
SLP120 T02170156





000
SAUS46 KLOX 191536
MTRMWS
METAR KMWS 191530Z 23500G00KT MM/M06 RMK SNOW DEPTH  M





000
SAUS46 KLOX 191518
MTRMWS
METAR KMWS 191515Z 23500G00KT MM/M02 RMK SNOW DEPTH  M





000
SAUS46 KLOX 191515
MTRMWS
METAR KMWS 191500Z 16503G06KT 20/M06 RMK SNOW DEPTH  M





000
SAUS46 KLOX 191456
MTR9L2
METAR K9L2 191455Z AUTO 24005KT 10SM CLR 24/05 A2985 RMK AO2 SLP089
T02390050 53007 TSNO $





000
SAUS46 KLOX 191455
MTRLAX
METAR KLAX 191453Z 15006KT 10SM FEW015 OVC024 21/16 A2989 RMK AO2
SLP119 T02110156 53006





000
SAUS46 KLOX 191454
MTRMWS
METAR KMWS 191445Z 17502G03KT 20/M03 RMK SNOW DEPTH  M





000
SAUS46 KLOX 191453
MTRSMX
METAR KSMX 191451Z 00000KT 10SM OVC008 17/13 A2991 RMK AO2 SLP128
T01670133 51005





000
SAUS46 KLOX 191449
MTRSDB
METAR KSDB 191448Z AUTO 21008KT 10SM CLR 17/07 A3000 RMK AO2 SLP107
T01720067 53001





000
SAUS46 KLOX 191448
MTRCQT
METAR KCQT 191447Z AUTO 00000KT 10SM OVC021 22/16 A2988 RMK AO2
SLP114 T02170156 53004





000
SAUS46 KLOX 191436
MTRMWS
METAR KMWS 191430Z 23500G00KT MM/M04 RMK SNOW DEPTH  M





000
SAUS46 KLOX 191415
MTRMWS
METAR KMWS 191400Z 17003G05KT 16/M05 RMK SNOW DEPTH  M





000
SAUS46 KLOX 191357
MTR9L2
METAR K9L2 191355Z AUTO 24014KT 10SM CLR 22/06 A2984 RMK AO2 SLP085
T02170061 TSNO $





000
SAUS46 KLOX 191354
MTRMWS
METAR KMWS 191345Z 20504G05KT 16/M05 RMK SNOW DEPTH  M





000
SAUS46 KLOX 191354
MTRLAX
METAR KLAX 191353Z 12004KT 10SM FEW015 OVC022 21/16 A2988 RMK AO2
SLP115 T02060161





000
SAUS46 KLOX 191352
MTRSMX
METAR KSMX 191351Z 00000KT 6SM HZ OVC008 16/13 A2990 RMK AO2 SLP127
T01610133





000
SAUS46 KLOX 191349
MTRSDB
METAR KSDB 191348Z AUTO 20009KT 10SM CLR 16/07 A2999 RMK AO2 SLP102
T01610067





000
SAUS46 KLOX 191348
MTRCQT
METAR KCQT 191347Z AUTO 00000KT 10SM OVC023 22/16 A2987 RMK AO2
SLP111 T02170156





000
SAUS46 KLOX 191336
MTRMWS
METAR KMWS 191330Z 23500G00KT MM/M04 RMK SNOW DEPTH  M





000
SAUS46 KLOX 191315
MTRMWS
METAR KMWS 191300Z 24005G07KT 15/M02 RMK SNOW DEPTH  M





000
SAUS46 KLOX 191259
MTR9L2
METAR K9L2 191255Z AUTO 23013KT 10SM CLR 21/07 A2983 RMK AO2 SLP080
T02060072 TSNO $





000
SAUS46 KLOX 191254
MTRMWS
METAR KMWS 191245Z 19504G06KT 15/M03 RMK SNOW DEPTH  M





000
SAUS46 KLOX 191254
MTRLAX
METAR KLAX 191253Z 12005KT 10SM OVC020 21/16 A2987 RMK AO2 SLP112
T02060156





000
SAUS46 KLOX 191253
MTRSMX
METAR KSMX 191251Z 27004KT 6SM BR OVC006 16/14 A2990 RMK AO2 SLP124
T01610139





000
SAUS46 KLOX 191249
MTRSDB
METAR KSDB 191248Z AUTO 21007KT 10SM CLR 16/07 A2999 RMK AO2 SLP096
T01610067





000
SAUS46 KLOX 191248
MTRCQT
METAR KCQT 191247Z AUTO 17004KT 10SM OVC021 21/16 A2986 RMK AO2
SLP110 T02110156





000
SAUS46 KLOX 191236
MTRMWS
METAR KMWS 191230Z 23500G00KT MM/M03 RMK SNOW DEPTH  M





000
SAUS46 KLOX 191215
MTRMWS
METAR KMWS 191200Z 21504G05KT 17/M07 RMK SNOW DEPTH  M





000
SAUS46 KLOX 191159
MTR9L2
METAR K9L2 191155Z AUTO 23013KT 10SM CLR 22/06 A2983 RMK AO2 SLP078
7//// T02170061 10256 20217 56001 TSNO $





000
SAUS46 KLOX 191154
MTRMWS
METAR KMWS 191145Z 21503G05KT 16/M08 RMK SNOW DEPTH  M





000
SAUS46 KLOX 191154
MTRLAX
METAR KLAX 191153Z 14004KT 10SM OVC020 21/16 A2987 RMK AO2 SLP113
T02060161 10211 20200 53002





000
SAUS46 KLOX 191153
MTRSMX
METAR KSMX 191151Z AUTO 00000KT 7SM OVC006 16/14 A2989 RMK AO2
SLP123 T01610139 10172 20161 51006 TSNO





000
SAUS46 KLOX 191149
MTRSDB
METAR KSDB 191148Z AUTO 22007KT 10SM CLR 17/07 A3000 RMK AO2 SLP098
T01670072 10200 20167 56004





000
SAUS46 KLOX 191148
MTRCQT
METAR KCQT 191147Z AUTO VRB03KT 10SM OVC022 22/16 A2986 RMK AO2
SLP110 T02170161 10217 20200 53001





000
SAUS46 KLOX 191136
MTRMWS
METAR KMWS 191130Z 23500G00KT MM/M07 RMK SNOW DEPTH  M





000
SAUS46 KLOX 191115
MTRMWS
METAR KMWS 191100Z 22005G06KT 17/M08 RMK SNOW DEPTH  M





000
SAUS46 KLOX 191057
MTR9L2
METAR K9L2 191055Z AUTO 24012KT 10SM CLR 22/06 A2983 RMK AO2 SLP078
T02220061 $





000
SAUS46 KLOX 191054
MTRMWS
METAR KMWS 191045Z 20504G06KT 18/M09 RMK SNOW DEPTH  M





000
SAUS46 KLOX 191054
MTRLAX
METAR KLAX 191053Z 16006KT 10SM OVC018 21/16 A2987 RMK AO2 SLP112
T02110161





000
SAUS46 KLOX 191052
MTRSMX
METAR KSMX 191051Z AUTO 28004KT 8SM OVC006 16/13 A2989 RMK AO2
SLP122 T01610133 TSNO





000
SAUS46 KLOX 191049
MTRSDB
METAR KSDB 191048Z AUTO 23004KT 10SM CLR 18/07 A3000 RMK AO2 SLP096
T01780072





000
SAUS46 KLOX 191048
MTRCQT
METAR KCQT 191047Z AUTO 08005KT 10SM OVC021 21/16 A2986 RMK AO2
SLP109 T02110156





000
SAUS46 KLOX 191036
MTRMWS
METAR KMWS 191030Z 23500G00KT MM/M11 RMK SNOW DEPTH  M





000
SAUS46 KLOX 191015
MTRMWS
METAR KMWS 191000Z 24507G08KT 17/M11 RMK SNOW DEPTH  M





000
SAUS46 KLOX 191006
MTRSMX
SPECI KSMX 191005Z AUTO 26005KT 7SM OVC006 17/14 A2988 RMK AO2 TSNO





000
SAUS46 KLOX 190959
MTR9L2
METAR K9L2 190955Z AUTO 24014KT 10SM CLR 23/06 A2983 RMK AO2 SLP076
T02280056 TSNO $





000
SAUS46 KLOX 190954
MTRMWS
METAR KMWS 190945Z 22507G10KT 18/M11 RMK SNOW DEPTH  M





000
SAUS46 KLOX 190954
MTRLAX
METAR KLAX 190953Z 12008KT 10SM OVC018 21/16 A2986 RMK AO2 SLP111
T02110161





000
SAUS46 KLOX 190953
MTRSMX
METAR KSMX 190951Z AUTO 30004KT 7SM OVC004 17/14 A2988 RMK AO2
SLP119 T01670139 TSNO





000
SAUS46 KLOX 190949
MTRSDB
METAR KSDB 190948Z AUTO 21005KT 10SM CLR 18/07 A3000 RMK AO2 SLP097
T01780072





000
SAUS46 KLOX 190948
MTRCQT
METAR KCQT 190947Z AUTO 11004KT 10SM OVC018 21/16 A2986 RMK AO2
SLP108 T02110161





000
SAUS46 KLOX 190936
MTRMWS
METAR KMWS 190930Z 23500G00KT MM/M12 RMK SNOW DEPTH  M





000
SAUS46 KLOX 190915
MTRMWS
METAR KMWS 190900Z 24505G06KT 18/M12 RMK SNOW DEPTH  M





000
SAUS46 KLOX 190901
MTRLAX
SPECI KLAX 190859Z 12005KT 10SM OVC016 21/17 A2987 RMK AO2





000
SAUS46 KLOX 190857
MTR9L2
METAR K9L2 190855Z AUTO 24012KT 10SM CLR 23/06 A2984 RMK AO2 SLP078
T02280061 58003 TSNO $





000
SAUS46 KLOX 190855
MTRLAX
METAR KLAX 190853Z 09004KT 10SM OVC014 21/17 A2987 RMK AO2 SLP111
T02060167 50002





000
SAUS46 KLOX 190854
MTRMWS
METAR KMWS 190845Z 24506G08KT 17/M13 RMK SNOW DEPTH  M





000
SAUS46 KLOX 190852
MTRSMX
METAR KSMX 190851Z AUTO 33005KT 7SM OVC004 17/14 A2987 RMK AO2
SLP116 T01670139 58001 TSNO





000
SAUS46 KLOX 190851
MTRCQT
SPECI KCQT 190850Z AUTO 13004KT 10SM OVC015 21/16 A2986 RMK AO2
T02110161





000
SAUS46 KLOX 190849
MTRSDB
METAR KSDB 190848Z AUTO 20007KT 10SM CLR 18/07 A3001 RMK AO2 SLP098
T01830067 58005





000
SAUS46 KLOX 190848
MTRCQT
METAR KCQT 190847Z AUTO VRB03KT 10SM OVC014 21/16 A2986 RMK AO2
SLP108 T02110161 50003





000
SAUS46 KLOX 190836
MTRMWS
METAR KMWS 190830Z 23500G00KT MM/M12 RMK SNOW DEPTH  M





000
SAUS46 KLOX 190815
MTRMWS
METAR KMWS 190800Z 24006G08KT 18/M15 RMK SNOW DEPTH  M





000
SAUS46 KLOX 190810
MTRSMX
SPECI KSMX 190809Z AUTO 00000KT 7SM OVC004 16/14 A2987 RMK AO2 TSNO





000
SAUS46 KLOX 190759
MTR9L2
METAR K9L2 190755Z AUTO 23015KT 10SM CLR 24/06 A2985 RMK AO2 SLP081
T02390061 403830167 TSNO $





000
SAUS46 KLOX 190757
MTRCQT
SPECI KCQT 190756Z AUTO 13004KT 10SM BKN013 21/17 A2986 RMK AO2
T02110172





000
SAUS46 KLOX 190754
MTRMWS
METAR KMWS 190745Z 24507G08KT 18/M14 RMK SNOW DEPTH  M





000
SAUS46 KLOX 190754
MTRLAX
METAR KLAX 190753Z 14005KT 10SM BKN014 21/17 A2987 RMK AO2 SLP111
T02060172 402500189





000
SAUS46 KLOX 190753
MTRSMX
METAR KSMX 190751Z AUTO 00000KT 7SM OVC006 16/14 A2988 RMK AO2 CIG
004V008 SLP118 T01610139 402440150 TSNO





000
SAUS46 KLOX 190749
MTRSDB
METAR KSDB 190748Z AUTO 19008KT 10SM CLR 19/05 A3002 RMK AO2 SLP102
T01890050 403330189





000
SAUS46 KLOX 190748
MTRCQT
METAR KCQT 190747Z AUTO 00000KT 10SM BKN015 21/17 A2986 RMK AO2
SLP108 T02110172 403000183





000
SAUS46 KLOX 190745
MTRCQT
SPECI KCQT 190744Z AUTO VRB03KT 10SM BKN015 21/17 A2986 RMK AO2
T02110167





000
SAUS46 KLOX 190745
MTRLAX
SPECI KLAX 190744Z 10004KT 10SM BKN014 21/17 A2987 RMK AO2





000
SAUS46 KLOX 190736
MTRMWS
METAR KMWS 190730Z 23500G00KT MM/M14 RMK SNOW DEPTH  M





000
SAUS46 KLOX 190715
MTRMWS
METAR KMWS 190700Z 23007G07KT 18/M13 RMK SNOW DEPTH  M





000
SAUS46 KLOX 190657
MTR9L2
METAR K9L2 190655Z AUTO 23012KT 10SM CLR 24/06 A2985 RMK AO2 SLP081
T02440056 TSNO $





000
SAUS46 KLOX 190654
MTRLAX
METAR KLAX 190653Z 08004KT 10SM FEW016 20/17 A2987 RMK AO2 SLP111
T02000172





000
SAUS46 KLOX 190654
MTRMWS
METAR KMWS 190645Z 23508G09KT 20/M17 RMK SNOW DEPTH  M





000
SAUS46 KLOX 190652
MTRSMX
METAR KSMX 190651Z AUTO 29006KT 9SM OVC008 17/14 A2988 RMK AO2
SLP117 T01720139 TSNO





000
SAUS46 KLOX 190649
MTRSDB
METAR KSDB 190648Z AUTO 21005KT 10SM CLR 20/04 A3003 RMK AO2 SLP105
T02000044





000
SAUS46 KLOX 190648
MTRCQT
METAR KCQT 190647Z AUTO 00000KT 10SM CLR 20/15 A2986 RMK AO2 SLP109
T02000150





000
SAUS46 KLOX 190615
MTRMWS
METAR KMWS 190600Z 23507G08KT 18/M12 RMK SNOW DEPTH  M





000
SAUS46 KLOX 190559
MTR9L2
METAR K9L2 190555Z AUTO 22009KT 10SM CLR 26/04 A2985 RMK AO2 SLP082
T02560044 10367 20256 51009 TSNO $





000
SAUS46 KLOX 190554
MTRLAX
METAR KLAX 190553Z 00000KT 10SM CLR 21/17 A2986 RMK AO2 SLP109
T02060172 10233 20200 51014





000
SAUS46 KLOX 190554
MTRMWS
METAR KMWS 190545Z 23508G09KT 20/M13 RMK SNOW DEPTH  M





000
SAUS46 KLOX 190553
MTRSMX
METAR KSMX 190551Z AUTO 00000KT 10SM OVC008 17/14 A2988 RMK AO2
SLP118 T01720139 10217 20167 50003 TSNO





000
SAUS46 KLOX 190549
MTRSDB
METAR KSDB 190548Z AUTO 21008KT 10SM CLR 20/04 A3003 RMK AO2 SLP105
T02000039 10306 20200 50004





000
SAUS46 KLOX 190548
MTRCQT
METAR KCQT 190547Z AUTO 00000KT 10SM CLR 20/16 A2985 RMK AO2 SLP106
T02000156 10267 20200 51014





000
SAUS46 KLOX 190536
MTRMWS
METAR KMWS 190530Z 23500G00KT MM/M13 RMK SNOW DEPTH  M





000
SAUS46 KLOX 190515
MTRMWS
METAR KMWS 190500Z 25507G09KT 18/M15 RMK SNOW DEPTH  M





000
SAUS46 KLOX 190457
MTR9L2
METAR K9L2 190455Z AUTO 24015KT 10SM CLR 27/04 A2984 RMK AO2 SLP081
T02670039 TSNO $





000
SAUS46 KLOX 190454
MTRMWS
METAR KMWS 190445Z 24005G07KT 20/M10 RMK SNOW DEPTH  M





000
SAUS46 KLOX 190454
MTRLAX
METAR KLAX 190453Z 25004KT 10SM CLR 20/17 A2986 RMK AO2 SLP107
T02000172





000
SAUS46 KLOX 190453
MTRSMX
METAR KSMX 190451Z AUTO 32003KT 10SM OVC008 17/14 A2988 RMK AO2
SLP120 T01670139 TSNO





000
SAUS46 KLOX 190449
MTRSDB
METAR KSDB 190448Z AUTO 22005KT 10SM CLR 21/03 A3003 RMK AO2 SLP107
T02110033





000
SAUS46 KLOX 190448
MTRCQT
METAR KCQT 190447Z AUTO 00000KT 10SM CLR 21/16 A2985 RMK AO2 SLP105
T02060161





000
SAUS46 KLOX 190436
MTRMWS
METAR KMWS 190430Z 23500G00KT MM/M09 RMK SNOW DEPTH  M





000
SAUS46 KLOX 190415
MTRMWS
METAR KMWS 190400Z 24507G10KT 20/M12 RMK SNOW DEPTH  M





000
SAUS46 KLOX 190357
MTR9L2
METAR K9L2 190355Z AUTO 23017KT 10SM CLR 28/03 A2983 RMK AO2 SLP079
T02780028 TSNO $





000
SAUS46 KLOX 190354
MTRMWS
METAR KMWS 190345Z 26006G09KT 20/M12 RMK SNOW DEPTH  M





000
SAUS46 KLOX 190354
MTRLAX
METAR KLAX 190353Z 25006KT 10SM CLR 20/17 A2985 RMK AO2 SLP104
T02000172





000
SAUS46 KLOX 190352
MTRSMX
METAR KSMX 190351Z AUTO 30007KT 10SM OVC008 17/14 A2987 RMK AO2
SLP116 T01720139 TSNO





000
SAUS46 KLOX 190349
MTRSDB
METAR KSDB 190348Z AUTO 21005KT 10SM CLR 22/04 A3003 RMK AO2 SLP104
T02220039





000
SAUS46 KLOX 190348
MTRCQT
METAR KCQT 190347Z AUTO 00000KT 10SM CLR 21/16 A2983 RMK AO2 SLP100
T02110161





000
SAUS46 KLOX 190342
MTRSMX
SPECI KSMX 190341Z AUTO 30006KT 10SM OVC008 17/14 A2987 RMK AO2 CIG
006V010 TSNO





000
SAUS46 KLOX 190336
MTRMWS
METAR KMWS 190330Z 23500G00KT MM/M11 RMK SNOW DEPTH  M





000
SAUS46 KLOX 190315
MTRMWS
METAR KMWS 190300Z 27007G14KT 21/M09 RMK SNOW DEPTH  M





000
SAUS46 KLOX 190258
MTR9L2
METAR K9L2 190255Z AUTO 24013KT 10SM CLR 30/01 A2982 RMK AO2 PK WND
24026/0224 SLP075 T03000011 53012 TSNO $





000
SAUS46 KLOX 190254
MTRMWS
METAR KMWS 190245Z 23500G00KT MM/M08 RMK SNOW DEPTH  M





000
SAUS46 KLOX 190254
MTRLAX
METAR KLAX 190253Z 27008KT 10SM FEW011 21/17 A2982 RMK AO2 SLP095
T02110172 53004





000
SAUS46 KLOX 190253
MTRSMX
METAR KSMX 190251Z 32007KT 10SM OVC010 17/14 A2987 RMK AO2 CIG
007V013 SLP115 T01720139 53005





000
SAUS46 KLOX 190249
MTRSDB
METAR KSDB 190248Z AUTO 22005KT 10SM CLR 23/04 A3001 RMK AO2 SLP100
T02280039 53003





000
SAUS46 KLOX 190248
MTRCQT
METAR KCQT 190247Z AUTO 28004KT 10SM CLR 22/16 A2981 RMK AO2 SLP092
T02220156 53009





000
SAUS46 KLOX 190236
MTRMWS
METAR KMWS 190230Z 23500G00KT MM/M03 RMK SNOW DEPTH  M





000
SAUS46 KLOX 190215
MTRMWS
METAR KMWS 190200Z 24512G14KT 23/01 RMK SNOW DEPTH  M





000
SAUS46 KLOX 190158
MTR9L2
METAR K9L2 190155Z AUTO 23020G26KT 10SM CLR 33/00 A2979 RMK AO2 PK
WND 24027/0126 SLP068 T03280000 TSNO $





000
SAUS46 KLOX 190155
MTRLAX
METAR KLAX 190153Z 26006KT 10SM FEW011 21/17 A2981 RMK AO2 SLP093
T02110172





000
SAUS46 KLOX 190154
MTRMWS
METAR KMWS 190145Z 25011G15KT 24/03 RMK SNOW DEPTH  M





000
SAUS46 KLOX 190152
MTRSMX
METAR KSMX 190151Z 31009KT 10SM BKN008 19/14 A2986 RMK AO2 SLP113
T01890139





000
SAUS46 KLOX 190149
MTRSDB
METAR KSDB 190148Z AUTO 22007KT 10SM CLR 26/04 A3001 RMK AO2 SLP098
T02610039





000
SAUS46 KLOX 190149
MTRCQT
METAR KCQT 190147Z AUTO VRB03KT 10SM CLR 24/16 A2979 RMK AO2 SLP086
T02390156





000
SAUS46 KLOX 190142
MTRSMX
SPECI KSMX 190140Z 30010KT 10SM BKN008 19/14 A2986 RMK AO2





000
SAUS46 KLOX 190136
MTRMWS
METAR KMWS 190130Z 23500G00KT MM/07 RMK SNOW DEPTH  M





000
SAUS46 KLOX 190115
MTRMWS
METAR KMWS 190100Z 23509G12KT 26/06 RMK SNOW DEPTH  M





000
SAUS46 KLOX 190059
MTR9L2
METAR K9L2 190055Z AUTO 23022G26KT 10SM CLR 35/01 A2979 RMK AO2 PK
WND 23026/0054 SLP065 T03500011 TSNO $





000
SAUS46 KLOX 190054
MTRMWS
METAR KMWS 190045Z 24011G14KT 25/04 RMK SNOW DEPTH  M





000
SAUS46 KLOX 190054
MTRLAX
METAR KLAX 190053Z 27008G16KT 10SM FEW015 SCT100 22/17 A2981 RMK AO2
SLP091 T02220172





000
SAUS46 KLOX 190053
MTRSMX
METAR KSMX 190051Z 32011KT 10SM CLR 21/14 A2985 RMK AO2 SLP110
T02060144





000
SAUS46 KLOX 190049
MTRSDB
METAR KSDB 190048Z AUTO 20008G15KT 10SM CLR 29/03 A3000 RMK AO2
SLP095 T02890033





000
SAUS46 KLOX 190048
MTRCQT
METAR KCQT 190047Z AUTO 27004KT 10SM CLR 25/17 A2979 RMK AO2 SLP085
T02500167





000
SAUS46 KLOX 190036
MTRMWS
METAR KMWS 190030Z 23500G00KT MM/09 RMK SNOW DEPTH  M





000
SAUS46 KLOX 190015
MTRMWS
METAR KMWS 190000Z 23511G13KT 27/09 RMK SNOW DEPTH  M





000
SAUS46 KLOX 182358
MTR9L2
METAR K9L2 182355Z AUTO 25015G19KT 10SM CLR 37/02 A2978 RMK AO2
SLP063 T03670017 10383 20339 56015 TSNO $





000
SAUS46 KLOX 182354
MTRMWS
METAR KMWS 182345Z 23011G16KT 26/07 RMK SNOW DEPTH  M





000
SAUS46 KLOX 182354
MTRLAX
METAR KLAX 182353Z 26010KT 10SM FEW015 SCT100 23/17 A2981 RMK AO2
SLP091 T02280167 10250 20228 56008





000
SAUS46 KLOX 182352
MTRSMX
METAR KSMX 182351Z 31011KT 10SM CLR 21/14 A2985 RMK AO2 SLP110
T02110144 10244 20178 56008





000
SAUS46 KLOX 182349
MTRCQT
METAR KCQT 182347Z AUTO 23004KT 10SM CLR 27/16 A2979 RMK AO2 SLP084
T02670161 10300 20267 56008





000
SAUS46 KLOX 182349
MTRSDB
METAR KSDB 182348Z AUTO 17014KT 10SM CLR 30/03 A3000 RMK AO2 SLP093
T03000028 10333 20300 56009





000
SAUS46 KLOX 182336
MTRMWS
METAR KMWS 182330Z 23500G00KT MM/07 RMK SNOW DEPTH  M





000
SAUS46 KLOX 182315
MTRMWS
METAR KMWS 182300Z 23010G13KT 28/08 RMK SNOW DEPTH  M





000
SAUS46 KLOX 182257
MTR9L2
METAR K9L2 182255Z AUTO 26014G20KT 10SM CLR 37/M02 A2979 RMK AO2
SLP064 T03721022 TSNO $





000
SAUS46 KLOX 182254
MTRLAX
METAR KLAX 182253Z 26009KT 10SM FEW015 SCT100 24/17 A2981 RMK AO2
SLP091 T02390172





000
SAUS46 KLOX 182254
MTRMWS
METAR KMWS 182245Z 23010G13KT 28/09 RMK SNOW DEPTH  M





000
SAUS46 KLOX 182252
MTRSMX
METAR KSMX 182251Z 31011KT 10SM CLR 23/14 A2985 RMK AO2 SLP109
T02280139





000
SAUS46 KLOX 182249
MTRSDB
METAR KSDB 182248Z AUTO 15013G20KT 10SM CLR 32/03 A3001 RMK AO2
SLP094 T03170028





000
SAUS46 KLOX 182249
MTRCQT
METAR KCQT 182247Z AUTO 10SM CLR 27/17 A2979 RMK AO2 SLP083
T02720167





000
SAUS46 KLOX 182236
MTRMWS
METAR KMWS 182230Z 23500G00KT MM/09 RMK SNOW DEPTH  M





000
SAUS46 KLOX 182215
MTRMWS
METAR KMWS 182200Z 23510G12KT 28/08 RMK SNOW DEPTH  M





000
SAUS46 KLOX 182157
MTR9L2
METAR K9L2 182155Z AUTO 19013G20KT 10SM CLR 38/M06 A2981 RMK AO2
SLP068 T03831056 TSNO $





000
SAUS46 KLOX 182154
MTRLAX
METAR KLAX 182153Z 25010KT 10SM FEW100 SCT220 24/18 A2982 RMK AO2
SLP095 T02390178





000
SAUS46 KLOX 182154
MTRMWS
METAR KMWS 182145Z 23010G13KT 28/09 RMK SNOW DEPTH  M





000
SAUS46 KLOX 182153
MTRSMX
METAR KSMX 182151Z 31010KT 10SM CLR 24/14 A2987 RMK AO2 SLP115
T02390144





000
SAUS46 KLOX 182149
MTRSDB
METAR KSDB 182148Z AUTO 15015G25KT 10SM CLR 32/03 A3002 RMK AO2
SLP097 T03220028





000
SAUS46 KLOX 182148
MTRCQT
METAR KCQT 182147Z AUTO VRB05KT 10SM CLR 28/17 A2979 RMK AO2 SLP086
T02780172





000
SAUS46 KLOX 182136
MTRMWS
METAR KMWS 182130Z 23500G00KT MM/09 RMK SNOW DEPTH  M





000
SAUS46 KLOX 182115
MTRMWS
METAR KMWS 182100Z 22510G13KT 27/08 RMK SNOW DEPTH  M





000
SAUS46 KLOX 182056
MTR9L2
METAR K9L2 182055Z AUTO 20007KT 10SM CLR 37/M08 A2983 RMK AO2 SLP076
T03721078 56021 TSNO $





000
SAUS46 KLOX 182054
MTRLAX
METAR KLAX 182053Z 26009KT 10SM FEW100 SCT180 24/18 A2983 RMK AO2
SLP099 T02390178 58014





000
SAUS46 KLOX 182054
MTRMWS
METAR KMWS 182045Z 23010G13KT 28/10 RMK SNOW DEPTH  M





000
SAUS46 KLOX 182052
MTRSMX
METAR KSMX 182051Z 32009KT 10SM CLR 24/14 A2988 RMK AO2 SLP117
T02390139 56017





000
SAUS46 KLOX 182049
MTRSDB
METAR KSDB 182048Z AUTO 13012G22KT 10SM CLR 32/04 A3003 RMK AO2
SLP100 T03220039 58017





000
SAUS46 KLOX 182048
MTRCQT
METAR KCQT 182047Z AUTO VRB05KT 10SM CLR 28/18 A2981 RMK AO2 SLP091
T02830178 56014





000
SAUS46 KLOX 182036
MTRMWS
METAR KMWS 182030Z 23500G00KT MM/10 RMK SNOW DEPTH  M





000
SAUS46 KLOX 182015
MTRMWS
METAR KMWS 182000Z 21504G07KT 28/10 RMK SNOW DEPTH  M





000
SAUS46 KLOX 181957
MTRMWS
METAR KMWS 181945Z 23505G07KT 28/08 RMK SNOW DEPTH  M





000
SAUS46 KLOX 181957
MTR9L2
METAR K9L2 181955Z AUTO 22009G22KT 10SM CLR 37/M04 A2984 RMK AO2
SLP080 T03671039 TSNO $





000
SAUS46 KLOX 181954
MTRLAX
METAR KLAX 181953Z 26011KT 10SM FEW100 SCT180 24/17 A2984 RMK AO2
SLP104 T02440172





000
SAUS46 KLOX 181953
MTRSMX
METAR KSMX 181951Z 28010G15KT 10SM CLR 24/14 A2989 RMK AO2 SLP122
T02390139





000
SAUS46 KLOX 181949
MTRSDB
METAR KSDB 181948Z AUTO 16006G18KT 10SM CLR 32/M01 A3005 RMK AO2
SLP106 T03171006





000
SAUS46 KLOX 181948
MTRCQT
METAR KCQT 181947Z AUTO VRB04KT 10SM CLR 29/17 A2982 RMK AO2 SLP093
T02940172





000
SAUS46 KLOX 181936
MTRMWS
METAR KMWS 181930Z 23500G00KT MM/07 RMK SNOW DEPTH  M





000
SAUS46 KLOX 181915
MTRMWS
METAR KMWS 181900Z 26003G08KT 27/07 RMK SNOW DEPTH  M





000
SAUS46 KLOX 181857
MTR9L2
METAR K9L2 181855Z AUTO 24011KT 10SM CLR 36/M03 A2987 RMK AO2 SLP090
T03611033 $





000
SAUS46 KLOX 181854
MTRLAX
METAR KLAX 181853Z 26007KT 10SM FEW180 24/17 A2986 RMK AO2 SLP110
T02440172





000
SAUS46 KLOX 181854
MTRMWS
METAR KMWS 181845Z 24505G06KT 28/07 RMK SNOW DEPTH  M





000
SAUS46 KLOX 181853
MTRSMX
METAR KSMX 181851Z 33006KT 10SM FEW010 22/14 A2991 RMK AO2 SLP129
T02170139





000
SAUS46 KLOX 181849
MTRSDB
METAR KSDB 181848Z AUTO 18010KT 10SM CLR 30/M02 A3008 RMK AO2 SLP114
T03001017





000
SAUS46 KLOX 181848
MTRCQT
METAR KCQT 181847Z AUTO VRB03KT 10SM CLR 29/18 A2983 RMK AO2 SLP100
T02890178





000
SAUS46 KLOX 181836
MTRMWS
METAR KMWS 181830Z 23500G00KT MM/07 RMK SNOW DEPTH  M





000
SAUS46 KLOX 181815
MTRMWS
METAR KMWS 181800Z 22006G08KT 27/07 RMK SNOW DEPTH  M





000
SAUS46 KLOX 181813
MTRSMX
SPECI KSMX 181812Z 00000KT 8SM SCT010 19/13 A2993 RMK AO2





000
SAUS46 KLOX 181757
MTRSMX
METAR KSMX 181751Z COR 27005KT 7SM BKN010 18/13 A2993 RMK AO2 CIG
006V010 SLP135 T01780133 10178 20150 51003





000
SAUS46 KLOX 181757
MTR9L2
METAR K9L2 181755Z AUTO 20005KT 10SM CLR 34/M02 A2989 RMK AO2 SLP097
6//// T03391022 10339 20167 $





000
SAUS46 KLOX 181754
MTRMWS
METAR KMWS 181745Z 25506G09KT 26/07 RMK SNOW DEPTH  M





000
SAUS46 KLOX 181754
MTRLAX
METAR KLAX 181753Z 24005KT 10SM FEW160 23/17 A2987 RMK AO2 SLP113
T02330167 10239 20189 58006





000
SAUS46 KLOX 181753
MTRSMX
METAR KSMX 181751Z 27005KT 7SM OVC009 18/13 A2993 RMK AO2 CIG
006V010 SLP135 T01780133 10178 20150 51003





000
SAUS46 KLOX 181749
MTRSDB
METAR KSDB 181748Z AUTO 17011KT 10SM CLR 30/02 A3009 RMK AO2 SLP122
T03000017 10306 20222 51003





000
SAUS46 KLOX 181748
MTRCQT
METAR KCQT 181747Z AUTO VRB04KT 10SM CLR 28/17 A2985 RMK AO2 SLP105
T02780167 10278 20183 58011





000
SAUS46 KLOX 181736
MTRMWS
METAR KMWS 181730Z 23500G00KT MM/08 RMK SNOW DEPTH  M





000
SAUS46 KLOX 181715
MTRMWS
METAR KMWS 181700Z 24502G04KT 27/06 RMK SNOW DEPTH  M





000
SAUS46 KLOX 181657
MTR9L2
METAR K9L2 181655Z AUTO 18007KT 10SM CLR 32/01 A2991 RMK AO2 SLP103
T03220006 $





000
SAUS46 KLOX 181654
MTRMWS
METAR KMWS 181645Z 24503G04KT 27/05 RMK SNOW DEPTH  M





000
SAUS46 KLOX 181654
MTRLAX
METAR KLAX 181653Z 27005KT 10SM FEW160 24/17 A2988 RMK AO2 SLP118
T02390167





000
SAUS46 KLOX 181652
MTRSMX
METAR KSMX 181651Z 29005KT 5SM HZ OVC007 17/13 A2992 RMK AO2 SLP134
T01670128





000
SAUS46 KLOX 181649
MTRSDB
METAR KSDB 181648Z AUTO 19007KT 10SM CLR 29/M01 A3009 RMK AO2 SLP122
T02891011





000
SAUS46 KLOX 181648
MTRCQT
METAR KCQT 181647Z AUTO 00000KT 10SM CLR 26/16 A2987 RMK AO2 SLP112
T02560161





000
SAUS46 KLOX 181636
MTRMWS
METAR KMWS 181630Z 23500G00KT MM/03 RMK SNOW DEPTH  M





000
SAUS46 KLOX 181615
MTRMWS
METAR KMWS 181600Z 03002G04KT 23/04 RMK SNOW DEPTH  M





000
SAUS46 KLOX 181558
MTR9L2
METAR K9L2 181555Z AUTO 20011KT 10SM CLR 28/03 A2991 RMK AO2 SLP105
T02830033 TSNO $





000
SAUS46 KLOX 181554
MTRLAX
METAR KLAX 181553Z 15003KT 10SM FEW150 22/16 A2989 RMK AO2 SLP118
T02220161





000
SAUS46 KLOX 181554
MTRMWS
METAR KMWS 181545Z 03503G04KT 25/04 RMK SNOW DEPTH  M





000
SAUS46 KLOX 181553
MTRSMX
METAR KSMX 181551Z 00000KT 7SM OVC004 16/13 A2992 RMK AO2 SLP134
T01610128





000
SAUS46 KLOX 181549
MTRSDB
METAR KSDB 181548Z AUTO VRB04KT 10SM CLR 28/M03 A3009 RMK AO2 SLP122
T02831033





000
SAUS46 KLOX 181548
MTRCQT
METAR KCQT 181547Z AUTO 00000KT 10SM CLR 23/17 A2988 RMK AO2 SLP114
T02330167





000
SAUS46 KLOX 181536
MTRMWS
METAR KMWS 181530Z 23500G00KT MM/04 RMK SNOW DEPTH  M





000
SAUS46 KLOX 181515
MTRMWS
METAR KMWS 181500Z 25502G03KT 25/M03 RMK SNOW DEPTH  M





000
SAUS46 KLOX 181459
MTR9L2
METAR K9L2 181455Z AUTO 19007KT 10SM CLR 24/03 A2991 RMK AO2 SLP105
T02390033 53007 TSNO $





000
SAUS46 KLOX 181454
MTRLAX
METAR KLAX 181453Z 00000KT 8SM FEW008 21/17 A2989 RMK AO2 SLP119
T02060172 53014





000
SAUS46 KLOX 181454
MTRMWS
METAR KMWS 181445Z 32001G02KT 23/M02 RMK SNOW DEPTH  M





000
SAUS46 KLOX 181453
MTRSMX
METAR KSMX 181451Z VRB03KT 6SM HZ OVC004 16/13 A2992 RMK AO2 SLP132
T01560128 51004





000
SAUS46 KLOX 181449
MTRSDB
METAR KSDB 181448Z AUTO 30007KT 10SM CLR 27/M04 A3008 RMK AO2 SLP120
T02671039 53005





000
SAUS46 KLOX 181448
MTRCQT
METAR KCQT 181447Z AUTO 00000KT 9SM CLR 21/17 A2988 RMK AO2 SLP116
T02060167 53012





000
SAUS46 KLOX 181436
MTRMWS
METAR KMWS 181430Z 23500G00KT MM/M02 RMK SNOW DEPTH  M





000
SAUS46 KLOX 181415
MTRMWS
METAR KMWS 181400Z 27503G11KT 20/M01 RMK SNOW DEPTH  M





000
SAUS46 KLOX 181357
MTR9L2
METAR K9L2 181355Z AUTO 20005KT 10SM CLR 21/02 A2989 RMK AO2 SLP101
T02060017 TSNO $





000
SAUS46 KLOX 181354
MTRLAX
METAR KLAX 181353Z 23003KT 9SM FEW007 SCT012 19/17 A2987 RMK AO2
SLP112 T01890172





000
SAUS46 KLOX 181354
MTRMWS
METAR KMWS 181345Z 27505G07KT 20/M01 RMK SNOW DEPTH  M





000
SAUS46 KLOX 181353
MTRLAX
SPECI KLAX 181351Z 24003KT 9SM FEW007 SCT012 19/17 A2987 RMK AO2





000
SAUS46 KLOX 181352
MTRSMX
METAR KSMX 181351Z 29003KT 7SM OVC004 16/13 A2992 RMK AO2 SLP131
T01560128





000
SAUS46 KLOX 181349
MTRSDB
METAR KSDB 181348Z AUTO 30013KT 10SM CLR 24/M01 A3007 RMK AO2 SLP115
T02391006 $





000
SAUS46 KLOX 181348
MTRCQT
METAR KCQT 181347Z AUTO 00000KT 10SM CLR 18/16 A2986 RMK AO2 SLP109
T01830161





000
SAUS46 KLOX 181336
MTRMWS
METAR KMWS 181330Z 23500G00KT MM/M01 RMK SNOW DEPTH  M





000
SAUS46 KLOX 181315
MTRMWS
METAR KMWS 181300Z 25508G13KT 20/M03 RMK SNOW DEPTH  M





000
SAUS46 KLOX 181259
MTR9L2
METAR K9L2 181255Z AUTO 00000KT 10SM CLR 17/M03 A2988 RMK AO2 SLP098
T01721028 TSNO $





000
SAUS46 KLOX 181254
MTRMWS
METAR KMWS 181245Z 28503G07KT 20/M03 RMK SNOW DEPTH  M





000
SAUS46 KLOX 181254
MTRLAX
METAR KLAX 181253Z 27005KT 10SM FEW010 SCT060 19/17 A2985 RMK AO2
SLP105 T01890167





000
SAUS46 KLOX 181253
MTRSMX
METAR KSMX 181251Z 00000KT 6SM BR OVC004 15/13 A2991 RMK AO2 SLP129
T01500133





000
SAUS46 KLOX 181249
MTRSDB
METAR KSDB 181248Z AUTO 32011KT 10SM CLR 23/00 A3006 RMK AO2 SLP112
T02280000 $





000
SAUS46 KLOX 181248
MTRCQT
METAR KCQT 181247Z AUTO 00000KT 10SM CLR 18/16 A2984 RMK AO2 SLP102
T01830161





000
SAUS46 KLOX 181236
MTRMWS
METAR KMWS 181230Z 23500G00KT MM/M03 RMK SNOW DEPTH  M





000
SAUS46 KLOX 181215
MTRMWS
METAR KMWS 181200Z 29506G09KT 21/M04 RMK SNOW DEPTH  M





000
SAUS46 KLOX 181159
MTR9L2
METAR K9L2 181155Z AUTO 00000KT 10SM CLR 18/M02 A2988 RMK AO2 SLP097
T01781022 10272 20178 55002 TSNO $





000
SAUS46 KLOX 181154
MTRMWS
METAR KMWS 181145Z 30007G11KT 22/M03 RMK SNOW DEPTH  M





000
SAUS46 KLOX 181154
MTRLAX
METAR KLAX 181153Z 00000KT 10SM FEW010 19/17 A2985 RMK AO2 SLP105
T01890167 10200 20189 58007





000
SAUS46 KLOX 181153
MTRSMX
METAR KSMX 181151Z AUTO 00000KT 7SM OVC002 16/13 A2990 RMK AO2
SLP127 T01560133 10167 20156 58004 TSNO





000
SAUS46 KLOX 181149
MTRSDB
METAR KSDB 181148Z AUTO 00000KT 10SM CLR 23/02 A3006 RMK AO2 SLP113
T02280017 10261 20222 58005 $





000
SAUS46 KLOX 181148
MTRCQT
METAR KCQT 181147Z AUTO 00000KT 9SM CLR 19/16 A2984 RMK AO2 SLP104
T01890161 10206 20183 58006





000
SAUS46 KLOX 181136
MTRMWS
METAR KMWS 181130Z 23500G00KT MM/M02 RMK SNOW DEPTH  M





000
SAUS46 KLOX 181115
MTRMWS
METAR KMWS 181100Z 33504G06KT 21/M04 RMK SNOW DEPTH  M





000
SAUS46 KLOX 181057
MTR9L2
METAR K9L2 181055Z AUTO 02004KT 10SM CLR 19/M02 A2988 RMK AO2 SLP096
T01891022 TSNO $





000
SAUS46 KLOX 181054
MTRMWS
METAR KMWS 181045Z 34502G04KT 21/M03 RMK SNOW DEPTH  M





000
SAUS46 KLOX 181054
MTRLAX
METAR KLAX 181053Z 01003KT 10SM FEW010 19/17 A2986 RMK AO2 SLP108
T01890167





000
SAUS46 KLOX 181052
MTRSMX
METAR KSMX 181051Z AUTO 00000KT 3SM BR OVC002 16/14 A2991 RMK AO2
SLP130 T01560139 TSNO





000
SAUS46 KLOX 181049
MTRSDB
METAR KSDB 181048Z AUTO 34009KT 10SM CLR 23/02 A3007 RMK AO2 SLP115
T02280022 $





000
SAUS46 KLOX 181048
MTRCQT
METAR KCQT 181047Z AUTO 00000KT 9SM CLR 19/16 A2985 RMK AO2 SLP106
T01890161





000
SAUS46 KLOX 181036
MTRMWS
METAR KMWS 181030Z 23500G00KT MM/M03 RMK SNOW DEPTH  M





000
SAUS46 KLOX 181015
MTRMWS
METAR KMWS 181000Z 27502G03KT 20/M04 RMK SNOW DEPTH  M





000
SAUS46 KLOX 180959
MTR9L2
METAR K9L2 180955Z AUTO 18005KT 10SM CLR 22/M02 A2988 RMK AO2 SLP094
T02171022 TSNO $





000
SAUS46 KLOX 180954
MTRMWS
METAR KMWS 180945Z 04003G04KT 21/M03 RMK SNOW DEPTH  M





000
SAUS46 KLOX 180954
MTRLAX
METAR KLAX 180953Z 31003KT 10SM FEW011 19/17 A2987 RMK AO2 SLP111
T01940167





000
SAUS46 KLOX 180952
MTRSMX
METAR KSMX 180951Z AUTO 30004KT 4SM BR OVC002 16/14 A2991 RMK AO2
SLP130 T01610139 TSNO





000
SAUS46 KLOX 180949
MTRSDB
METAR KSDB 180948Z AUTO 31008KT 10SM CLR 23/03 A3008 RMK AO2 SLP117
T02280028 $





000
SAUS46 KLOX 180948
MTRCQT
METAR KCQT 180947Z AUTO 00000KT 8SM CLR 19/17 A2986 RMK AO2 SLP108
T01940167





000
SAUS46 KLOX 180936
MTRMWS
METAR KMWS 180930Z 23500G00KT MM/M03 RMK SNOW DEPTH  M





000
SAUS46 KLOX 180925
MTRSMX
SPECI KSMX 180923Z AUTO 29006KT 4SM BR OVC002 16/14 A2992 RMK AO2
TSNO





000
SAUS46 KLOX 180917
MTRSMX
SPECI KSMX 180916Z AUTO 30006KT 2 1/2SM BR OVC002 16/14 A2992 RMK
AO2 TSNO





000
SAUS46 KLOX 180915
MTRMWS
METAR KMWS 180900Z 34003G03KT 21/M04 RMK SNOW DEPTH  M





000
SAUS46 KLOX 180908
MTRSMX
SPECI KSMX 180907Z AUTO 31005KT 1 1/2SM BR OVC002 16/14 A2991 RMK
AO2 TSNO





000
SAUS46 KLOX 180859
MTR9L2
METAR K9L2 180855Z AUTO 00000KT 10SM CLR 21/M02 A2989 RMK AO2 SLP098
T02111022 58004 TSNO $





000
SAUS46 KLOX 180855
MTRLAX
METAR KLAX 180853Z 26006KT 10SM FEW011 19/16 A2987 RMK AO2 SLP112
T01940161 58000





000
SAUS46 KLOX 180852
MTRSMX
METAR KSMX 180851Z AUTO 31004KT 1/2SM FG VV002 16/14 A2992 RMK AO2
SLP131 T01560139 56007 TSNO





000
SAUS46 KLOX 180849
MTRSDB
METAR KSDB 180848Z AUTO 35014G25KT 10SM CLR 24/03 A3008 RMK AO2 PK
WND 36031/0827 SLP115 T02440028 $





000
SAUS46 KLOX 180848
MTRCQT
METAR KCQT 180847Z AUTO 00000KT 10SM CLR 20/16 A2986 RMK AO2 SLP108
T02000161 58000





000
SAUS46 KLOX 180836
MTRMWS
METAR KMWS 180830Z 23500G00KT MM/M04 RMK SNOW DEPTH  M





000
SAUS46 KLOX 180831
MTRSMX
SPECI KSMX 180830Z AUTO 31005KT 3/4SM BR VV002 16/14 A2992 RMK AO2
TSNO





000
SAUS46 KLOX 180823
MTRSMX
SPECI KSMX 180822Z AUTO 28006KT 1 1/2SM BR OVC003 16/14 A2992 RMK
AO2 TSNO





000
SAUS46 KLOX 180815
MTRMWS
METAR KMWS 180800Z 04502G03KT 22/M03 RMK SNOW DEPTH  M





000
SAUS46 KLOX 180801
MTRSMX
SPECI KSMX 180800Z AUTO 30004KT 2 1/2SM BR OVC003 16/14 A2992 RMK
AO2 TSNO





000
SAUS46 KLOX 180757
MTR9L2
METAR K9L2 180755Z AUTO 22005KT 10SM CLR 24/M02 A2990 RMK AO2 SLP097
T02391017 404000150 TSNO $





000
SAUS46 KLOX 180755
MTRLAX
METAR KLAX 180753Z 23004KT 10SM SCT011 20/17 A2987 RMK AO2 SLP113
SCT V BKN T02000172 402500194





000
SAUS46 KLOX 180754
MTRMWS
METAR KMWS 180745Z 03003G04KT 22/M03 RMK SNOW DEPTH  M





000
SAUS46 KLOX 180753
MTRSMX
METAR KSMX 180751Z AUTO 32004KT 3SM BR OVC003 16/14 A2992 RMK AO2
SLP131 T01610139 402390144 TSNO





000
SAUS46 KLOX 180750
MTRLAX
SPECI KLAX 180749Z 21004KT 10SM BKN011 20/17 A2987 RMK AO2 402500194





000
SAUS46 KLOX 180749
MTRSDB
METAR KSDB 180748Z AUTO 35011G21KT 10SM 24/02 A3009 RMK AO2 SLP120
T02440022 403390222 $





000
SAUS46 KLOX 180748
MTRCQT
METAR KCQT 180747Z AUTO 00000KT 10SM CLR 20/15 A2987 RMK AO2 SLP110
T02000150 403170189





000
SAUS46 KLOX 180736
MTRMWS
METAR KMWS 180730Z 23500G00KT MM/M02 RMK SNOW DEPTH  M





000
SAUS46 KLOX 180715
MTRMWS
METAR KMWS 180700Z 02003G04KT 22/M01 RMK SNOW DEPTH  M





000
SAUS46 KLOX 180657
MTRMWS
METAR KMWS 180645Z 34003G04KT 22/M01 RMK SNOW DEPTH  M





000
SAUS46 KLOX 180657
MTR9L2
METAR K9L2 180655Z AUTO 18005KT 10SM CLR 25/M01 A2991 RMK AO2 SLP102
T02501011 $





000
SAUS46 KLOX 180655
MTRLAX
METAR KLAX 180653Z 18004KT 10SM SCT010 20/17 A2988 RMK AO2 SLP114
SCT V BKN T02000172





000
SAUS46 KLOX 180652
MTRSMX
METAR KSMX 180651Z AUTO 29006KT 7SM OVC003 17/14 A2993 RMK AO2
SLP136 T01670144 TSNO





000
SAUS46 KLOX 180650
MTRSDB
METAR KSDB 180648Z AUTO 34012G25KT 310V020 10SM CLR 26/M02 A3011 RMK
AO2 SLP125 T02611022





000
SAUS46 KLOX 180649
MTRCQT
METAR KCQT 180647Z AUTO 00000KT 10SM CLR 20/16 A2987 RMK AO2 SLP111
T02000156





000
SAUS46 KLOX 180636
MTRMWS
METAR KMWS 180630Z 23500G00KT MM/M02 RMK SNOW DEPTH  M





000
SAUS46 KLOX 180615
MTRMWS
METAR KMWS 180600Z 30502G05KT 22/M03 RMK SNOW DEPTH  M





000
SAUS46 KLOX 180615
MTRSMX
SPECI KSMX 180614Z AUTO 29007KT 5SM BR BKN003 OVC007 16/14 A2994 RMK
AO2 TSNO





000
SAUS46 KLOX 180557
MTR9L2
METAR K9L2 180555Z AUTO 00000KT 10SM CLR 27/01 A2990 RMK AO2 SLP101
T02670006 10389 20267 50005 TSNO $





000
SAUS46 KLOX 180554
MTRMWS
METAR KMWS 180545Z 26003G04KT 22/M03 RMK SNOW DEPTH  M





000
SAUS46 KLOX 180554
MTRLAX
METAR KLAX 180553Z 27004KT 10SM CLR 19/16 A2987 RMK AO2 SLP112
T01940161 10228 20194 50006





000
SAUS46 KLOX 180552
MTRSMX
METAR KSMX 180551Z AUTO 27004KT 8SM BKN007 15/13 A2994 RMK AO2
SLP139 T01500128 10222 20144 51003 TSNO





000
SAUS46 KLOX 180549
MTRSDB
METAR KSDB 180548Z AUTO 34006KT 10SM CLR 24/02 A3012 RMK AO2 SLP130
T02390017 10317 20239 50002





000
SAUS46 KLOX 180548
MTRCQT
METAR KCQT 180547Z AUTO 00000KT 10SM CLR 21/16 A2986 RMK AO2 SLP109
T02110156 10267 20206 51005





000
SAUS46 KLOX 180536
MTRMWS
METAR KMWS 180530Z 23500G00KT MM/M02 RMK SNOW DEPTH  M





000
SAUS46 KLOX 180523
MTRSMX
SPECI KSMX 180522Z AUTO 27003KT 8SM SCT005 15/13 A2994 RMK AO2 TSNO





000
SAUS46 KLOX 180515
MTRMWS
METAR KMWS 180500Z 35003G06KT 22/M01 RMK SNOW DEPTH  M





000
SAUS46 KLOX 180459
MTR9L2
METAR K9L2 180455Z AUTO 28007KT 10SM CLR 29/02 A2991 RMK AO2 SLP104
T02890022 $





000
SAUS46 KLOX 180454
MTRMWS
METAR KMWS 180445Z 29006G09KT 22/00 RMK SNOW DEPTH  M





000
SAUS46 KLOX 180454
MTRLAX
METAR KLAX 180453Z 23006KT 10SM CLR 20/17 A2987 RMK AO2 SLP113
T02000167





000
SAUS46 KLOX 180452
MTRSMX
METAR KSMX 180451Z AUTO 30004KT 8SM BKN005 16/13 A2994 RMK AO2
SLP139 T01560133 TSNO





000
SAUS46 KLOX 180449
MTRSDB
METAR KSDB 180448Z AUTO VRB06KT 10SM CLR 24/00 A3012 RMK AO2 SLP133
T02440000





000
SAUS46 KLOX 180448
MTRCQT
METAR KCQT 180447Z AUTO 00000KT 10SM CLR 21/14 A2986 RMK AO2 SLP109
T02110144





000
SAUS46 KLOX 180436
MTRMWS
METAR KMWS 180430Z 23500G00KT MM/01 RMK SNOW DEPTH  M





000
SAUS46 KLOX 180415
MTRMWS
METAR KMWS 180400Z 29004G09KT 23/00 RMK SNOW DEPTH  M





000
SAUS46 KLOX 180357
MTR9L2
METAR K9L2 180355Z AUTO 27012KT 10SM CLR 31/02 A2990 RMK AO2 SLP102
T03060017 $





000
SAUS46 KLOX 180354
MTRLAX
METAR KLAX 180353Z 24007KT 9SM CLR 20/16 A2986 RMK AO2 SLP108
T02000161





000
SAUS46 KLOX 180354
MTRMWS
METAR KMWS 180345Z 34004G09KT 23/00 RMK SNOW DEPTH  M





000
SAUS46 KLOX 180353
MTRSMX
METAR KSMX 180351Z AUTO 31006KT 8SM SCT008 16/14 A2993 RMK AO2
SLP137 T01610139 TSNO





000
SAUS46 KLOX 180349
MTRSDB
METAR KSDB 180348Z AUTO 32007G18KT 10SM CLR 26/M02 A3011 RMK AO2
SLP132 T02561017





000
SAUS46 KLOX 180348
MTRCQT
METAR KCQT 180347Z AUTO 00000KT 10SM CLR 22/13 A2985 RMK AO2 SLP106
T02170133





000
SAUS46 KLOX 180336
MTRMWS
METAR KMWS 180330Z 23500G00KT MM/00 RMK SNOW DEPTH  M





000
SAUS46 KLOX 180315
MTRMWS
METAR KMWS 180300Z 25501G02KT 23/00 RMK SNOW DEPTH  M





000
SAUS46 KLOX 180256
MTR9L2
METAR K9L2 180255Z AUTO 27013KT 10SM CLR 32/01 A2989 RMK AO2 SLP100
T03220011 53004 $





000
SAUS46 KLOX 180254
MTRLAX
METAR KLAX 180253Z 25008KT 10SM FEW060 21/16 A2985 RMK AO2 SLP106
T02060156 56011





000
SAUS46 KLOX 180254
MTRMWS
METAR KMWS 180245Z 03002G04KT 23/00 RMK SNOW DEPTH  M





000
SAUS46 KLOX 180253
MTRSMX
METAR KSMX 180251Z 32010KT 8SM SCT008 17/14 A2993 RMK AO2 SLP136
T01720139 56004





000
SAUS46 KLOX 180249
MTRSDB
METAR KSDB 180248Z AUTO 32012G17KT 10SM CLR 26/01 A3011 RMK AO2 PK
WND 32027/0205 SLP131 T02610006 56006





000
SAUS46 KLOX 180248
MTRCQT
METAR KCQT 180247Z AUTO VRB04KT 10SM CLR 22/12 A2985 RMK AO2 SLP104
T02220122 55005





000
SAUS46 KLOX 180236
MTRMWS
METAR KMWS 180230Z 23500G00KT MM/03 RMK SNOW DEPTH  M





000
SAUS46 KLOX 180215
MTRMWS
METAR KMWS 180200Z 29002G04KT 26/05 RMK SNOW DEPTH  M





000
SAUS46 KLOX 180156
MTR9L2
METAR K9L2 180155Z AUTO 28017KT 10SM CLR 35/00 A2987 RMK AO2 SLP095
T03500000 $





000
SAUS46 KLOX 180155
MTRLAX
METAR KLAX 180153Z 26011KT 10SM FEW060 22/14 A2986 RMK AO2 SLP108
T02170144





000
SAUS46 KLOX 180154
MTRMWS
METAR KMWS 180145Z 26001G04KT 27/07 RMK SNOW DEPTH  M





000
SAUS46 KLOX 180152
MTRSMX
METAR KSMX 180151Z 32009KT 10SM CLR 19/14 A2993 RMK AO2 SLP136
T01940139





000
SAUS46 KLOX 180149
MTRSDB
METAR KSDB 180148Z AUTO 32018G25KT 10SM CLR 29/M04 A3011 RMK AO2
SLP129 T02891044





000
SAUS46 KLOX 180149
MTRCQT
METAR KCQT 180147Z AUTO 26004KT 10SM CLR 24/14 A2984 RMK AO2 SLP103
T02440144





000
SAUS46 KLOX 180136
MTRMWS
METAR KMWS 180130Z 23500G00KT MM/08 RMK SNOW DEPTH  M





000
SAUS46 KLOX 180115
MTRMWS
METAR KMWS 180100Z 19503G06KT 28/09 RMK SNOW DEPTH  M





000
SAUS46 KLOX 180059
MTR9L2
METAR K9L2 180055Z AUTO 27012KT 10SM CLR 38/M01 A2987 RMK AO2 PK WND
24027/0001 SLP093 T03781011 TSNO $





000
SAUS46 KLOX 180054
MTRMWS
METAR KMWS 180045Z 19004G08KT 30/08 RMK SNOW DEPTH  M





000
SAUS46 KLOX 180054
MTRLAX
METAR KLAX 180053Z 27011KT 10SM FEW015 SCT060 22/16 A2987 RMK AO2
SLP112 T02220161





000
SAUS46 KLOX 180053
MTRSMX
METAR KSMX 180051Z 32013KT 10SM CLR 21/14 A2993 RMK AO2 SLP137
T02110139





000
SAUS46 KLOX 180049
MTRSDB
METAR KSDB 180048Z AUTO 34016G22KT 10SM CLR 31/M01 A3012 RMK AO2
SLP133 T03061011





000
SAUS46 KLOX 180048
MTRCQT
METAR KCQT 180047Z AUTO VRB04KT 10SM CLR 26/16 A2985 RMK AO2 SLP107
T02560156





000
SAUS46 KLOX 180036
MTRMWS
METAR KMWS 180030Z 23500G00KT MM/09 RMK SNOW DEPTH  M





000
SAUS46 KLOX 180015
MTRMWS
METAR KMWS 180000Z 23504G05KT 30/08 RMK SNOW DEPTH  M





000
SAUS46 KLOX 180014
MTRLAX
METAR KLAX 172353Z COR 25012KT 10SM FEW015 SCT060 23/17 A2988 RMK
AO2 SLP117 T02280172 10250 20228 56016





000
SAUS46 KLOX 172356
MTR9L2
METAR K9L2 172355Z AUTO 23013G22KT 10SM CLR 39/01 A2988 RMK AO2
SLP094 T03890006 10400 20344 56018 TSNO $





000
SAUS46 KLOX 172354
MTRMWS
METAR KMWS 172345Z 24506G06KT 29/06 RMK SNOW DEPTH  M





000
SAUS46 KLOX 172354
MTRLAX
METAR KLAX 172353Z 25012KT 10SM FEW060 23/17 A2988 RMK AO2 SLP117
T02280172 10250 20228 56016





000
SAUS46 KLOX 172353
MTRSMX
METAR KSMX 172351Z 32012KT 10SM CLR 22/14 A2994 RMK AO2 SLP140
T02220139 10239 20189 56013





000
SAUS46 KLOX 172349
MTRCQT
METAR KCQT 172347Z AUTO VRB05KT 10SM CLR 26/14 A2986 RMK AO2 SLP110
T02610144 10317 20261 56014





000
SAUS46 KLOX 172349
MTRSDB
METAR KSDB 172348Z AUTO 33017KT 10SM CLR 31/M03 A3013 RMK AO2 SLP134
T03111028 10339 20311 56011





000
SAUS46 KLOX 172336
MTRMWS
METAR KMWS 172330Z 23500G00KT MM/11 RMK SNOW DEPTH  M





000
SAUS46 KLOX 172315
MTRMWS
METAR KMWS 172300Z 25005G08KT 30/08 RMK SNOW DEPTH  M





000
SAUS46 KLOX 172259
MTR9L2
METAR K9L2 172255Z AUTO 22010G20KT 10SM CLR 39/M03 A2989 RMK AO2
SLP097 T03941033 $





000
SAUS46 KLOX 172254
MTRLAX
METAR KLAX 172253Z 26012KT 10SM FEW060 24/16 A2989 RMK AO2 SLP120
T02390156





000
SAUS46 KLOX 172254
MTRMWS
METAR KMWS 172245Z 25004G08KT 30/08 RMK SNOW DEPTH  M





000
SAUS46 KLOX 172252
MTRSMX
METAR KSMX 172251Z 32012KT 10SM CLR 23/14 A2995 RMK AO2 SLP141
T02280139





000
SAUS46 KLOX 172249
MTRSDB
METAR KSDB 172248Z AUTO 34015G23KT 10SM CLR 33/M01 A3014 RMK AO2
SLP136 T03281011





000
SAUS46 KLOX 172248
MTRCQT
METAR KCQT 172247Z AUTO 27006KT 10SM CLR 28/14 A2988 RMK AO2 SLP114
T02780139





000
SAUS46 KLOX 172236
MTRMWS
METAR KMWS 172230Z 23500G00KT MM/08 RMK SNOW DEPTH  M





000
SAUS46 KLOX 172215
MTRMWS
METAR KMWS 172200Z 22504G06KT 30/09 RMK SNOW DEPTH  M





000
SAUS46 KLOX 172157
MTR9L2
METAR K9L2 172155Z AUTO 20008KT 10SM CLR 39/M02 A2991 RMK AO2 SLP104
T03941022 TSNO $





000
SAUS46 KLOX 172154
MTRMWS
METAR KMWS 172145Z 24505G07KT 30/08 RMK SNOW DEPTH  M





000
SAUS46 KLOX 172154
MTRLAX
METAR KLAX 172153Z 26012KT 10SM FEW060 24/16 A2991 RMK AO2 SLP127
T02440161





000
SAUS46 KLOX 172152
MTRSMX
METAR KSMX 172151Z 31012KT 10SM CLR 23/14 A2996 RMK AO2 SLP146
T02330139





000
SAUS46 KLOX 172149
MTRSDB
METAR KSDB 172148Z AUTO 34017KT 10SM CLR 33/M01 A3015 RMK AO2 SLP142
T03281006





000
SAUS46 KLOX 172148
MTRCQT
METAR KCQT 172147Z AUTO VRB03KT 10SM CLR 29/14 A2989 RMK AO2 SLP118
T02890144





000
SAUS46 KLOX 172136
MTRMWS
METAR KMWS 172130Z 23500G00KT MM/07 RMK SNOW DEPTH  M





000
SAUS46 KLOX 172115
MTRMWS
METAR KMWS 172100Z 23008G10KT 29/08 RMK SNOW DEPTH  M





000
SAUS46 KLOX 172057
MTR9L2
METAR K9L2 172055Z AUTO 27009G14KT 230V310 10SM CLR 39/M04 A2993 RMK
AO2 SLP110 T03891039 58018 TSNO $





000
SAUS46 KLOX 172054
MTRMWS
METAR KMWS 172045Z 24507G09KT 29/08 RMK SNOW DEPTH  M





000
SAUS46 KLOX 172054
MTRLAX
METAR KLAX 172053Z 25011KT 10SM FEW060 25/16 A2993 RMK AO2 SLP133
T02500156 56015





000
SAUS46 KLOX 172053
MTRSMX
METAR KSMX 172051Z 31010G17KT 10SM CLR 23/14 A2998 RMK AO2 SLP152
T02330139 58016





000
SAUS46 KLOX 172050
MTRSDB
METAR KSDB 172048Z AUTO 33012G23KT 10SM CLR 33/01 A3017 RMK AO2
SLP147 T03280011 58007





000
SAUS46 KLOX 172048
MTRCQT
METAR KCQT 172047Z AUTO 22004KT 10SM CLR 31/14 A2991 RMK AO2 SLP123
T03060139 56017





000
SAUS46 KLOX 172036
MTRMWS
METAR KMWS 172030Z 23500G00KT MM/07 RMK SNOW DEPTH  M





000
SAUS46 KLOX 172015
MTRMWS
METAR KMWS 172000Z 22506G10KT 30/08 RMK SNOW DEPTH  M





000
SAUS46 KLOX 171957
MTR9L2
METAR K9L2 171955Z AUTO 24010G15KT 210V290 10SM CLR 39/M04 A2995 RMK
AO2 SLP115 T03891044 TSNO $





000
SAUS46 KLOX 171954
MTRMWS
METAR KMWS 171945Z 23006G08KT 30/08 RMK SNOW DEPTH  M





000
SAUS46 KLOX 171954
MTRLAX
METAR KLAX 171953Z 25008KT 10SM FEW040 24/17 A2994 RMK AO2 SLP137
T02440172





000
SAUS46 KLOX 171953
MTRSMX
METAR KSMX 171951Z 30008KT 10SM CLR 23/13 A3000 RMK AO2 SLP158
T02280133





000
SAUS46 KLOX 171949
MTRSDB
METAR KSDB 171948Z AUTO VRB03KT 10SM CLR 33/01 A3018 RMK AO2 SLP150
T03330006





000
SAUS46 KLOX 171948
MTRCQT
METAR KCQT 171947Z AUTO 00000KT 10SM CLR 31/17 A2992 RMK AO2 SLP127
T03060172





000
SAUS46 KLOX 171936
MTRMWS
METAR KMWS 171930Z 23500G00KT MM/07 RMK SNOW DEPTH  M





000
SAUS46 KLOX 171915
MTRMWS
METAR KMWS 171900Z 23503G06KT 30/07 RMK SNOW DEPTH  M





000
SAUS46 KLOX 171859
MTR9L2
METAR K9L2 171855Z AUTO 27005KT 10SM CLR 37/M04 A2997 RMK AO2 SLP124
T03721044 TSNO $





000
SAUS46 KLOX 171854
MTRMWS
METAR KMWS 171845Z 25003G06KT 29/05 RMK SNOW DEPTH  M





000
SAUS46 KLOX 171854
MTRLAX
METAR KLAX 171853Z 26008KT 10SM FEW040 24/17 A2996 RMK AO2 SLP144
T02440167





000
SAUS46 KLOX 171852
MTRSMX
METAR KSMX 171851Z 32007KT 10SM FEW010 22/13 A3001 RMK AO2 SLP164
T02170133





000
SAUS46 KLOX 171849
MTRSDB
METAR KSDB 171848Z AUTO VRB05KT 10SM CLR 33/00 A3019 RMK AO2 SLP153
T03280000





000
SAUS46 KLOX 171848
MTRCQT
METAR KCQT 171847Z AUTO 00000KT 10SM CLR 31/16 A2994 RMK AO2 SLP135
T03060156





000
SAUS46 KLOX 171836
MTRMWS
METAR KMWS 171830Z 23500G00KT MM/06 RMK SNOW DEPTH  M





000
SAUS46 KLOX 171815
MTRMWS
METAR KMWS 171800Z 24503G04KT 30/06 RMK SNOW DEPTH  M





000
SAUS46 KLOX 171757
MTR9L2
METAR K9L2 171755Z AUTO 00000KT 10SM CLR 34/M01 A2999 RMK AO2 SLP129
T03391006 10344 20150 58008 TSNO $





000
SAUS46 KLOX 171754
MTRMWS
METAR KMWS 171745Z 24503G05KT 30/05 RMK SNOW DEPTH  M





000
SAUS46 KLOX 171754
MTRLAX
METAR KLAX 171753Z 27008KT 10SM CLR 24/17 A2997 RMK AO2 SLP149
T02440172 10244 20194 52001





000
SAUS46 KLOX 171753
MTRSMX
METAR KSMX 171751Z 27005KT 9SM SCT009 19/13 A3003 RMK AO2 SLP169
T01890133 10194 20150 50001





000
SAUS46 KLOX 171749
MTRSDB
METAR KSDB 171748Z AUTO 34009KT 10SM CLR 32/00 A3019 RMK AO2 SLP155
T03170000 10317 20233 52002





000
SAUS46 KLOX 171748
MTRCQT
METAR KCQT 171747Z AUTO VRB03KT 10SM CLR 29/14 A2995 RMK AO2 SLP140
T02890144 10289 20189 56003





000
SAUS46 KLOX 171736
MTRMWS
METAR KMWS 171730Z 23500G00KT MM/05 RMK SNOW DEPTH  M





000
SAUS46 KLOX 171715
MTRMWS
METAR KMWS 171700Z 24003G04KT 28/05 RMK SNOW DEPTH  M





000
SAUS46 KLOX 171657
MTR9L2
METAR K9L2 171655Z AUTO 09003KT 10SM CLR 30/01 A3000 RMK AO2 SLP136
T03000011 TSNO $





000
SAUS46 KLOX 171654
MTRMWS
METAR KMWS 171645Z 25503G04KT 27/04 RMK SNOW DEPTH  M





000
SAUS46 KLOX 171654
MTRLAX
METAR KLAX 171653Z 00000KT 10SM CLR 23/17 A2998 RMK AO2 SLP149
T02330172





000
SAUS46 KLOX 171653
MTRSMX
METAR KSMX 171651Z 26004KT 7SM OVC007 17/13 A3003 RMK AO2 SLP170
T01720133





000
SAUS46 KLOX 171649
MTRSDB
METAR KSDB 171648Z AUTO 33006KT 10SM CLR 29/M01 A3019 RMK AO2 SLP157
T02941006





000
SAUS46 KLOX 171648
MTRCQT
METAR KCQT 171647Z AUTO 00000KT 10SM CLR 27/17 A2996 RMK AO2 SLP142
T02720167





000
SAUS46 KLOX 171636
MTRMWS
METAR KMWS 171630Z 23500G00KT MM/04 RMK SNOW DEPTH  M





000
SAUS46 KLOX 171615
MTRMWS
METAR KMWS 171600Z 24503G06KT 27/05 RMK SNOW DEPTH  M





000
SAUS46 KLOX 171559
MTR9L2
METAR K9L2 171555Z AUTO 00000KT 10SM CLR 26/01 A3001 RMK AO2 SLP140
T02560006 TSNO $





000
SAUS46 KLOX 171554
MTRMWS
METAR KMWS 171545Z 26001G02KT 27/05 RMK SNOW DEPTH  M





000
SAUS46 KLOX 171554
MTRLAX
METAR KLAX 171553Z 24005KT 10SM CLR 22/17 A2997 RMK AO2 SLP148
T02170172





000
SAUS46 KLOX 171552
MTRSMX
METAR KSMX 171551Z VRB03KT 6SM HZ OVC004 16/13 A3002 RMK AO2 SLP168
T01610133





000
SAUS46 KLOX 171549
MTRSDB
METAR KSDB 171548Z AUTO 32009KT 10SM CLR 28/M01 A3019 RMK AO2 SLP156
T02781006





000
SAUS46 KLOX 171548
MTRCQT
METAR KCQT 171547Z AUTO 00000KT 10SM CLR 24/16 A2996 RMK AO2 SLP142
T02440161





000
SAUS46 KLOX 171536
MTRMWS
METAR KMWS 171530Z 23500G00KT MM/04 RMK SNOW DEPTH  M





000
SAUS46 KLOX 171515
MTRMWS
METAR KMWS 171500Z 27003G08KT 24/04 RMK SNOW DEPTH  M





000
SAUS46 KLOX 171459
MTR9L2
METAR K9L2 171455Z AUTO 00000KT 10SM CLR 22/02 A3001 RMK AO2 SLP143
T02170017 51008 TSNO $





000
SAUS46 KLOX 171459
MTRSMX
SPECI KSMX 171458Z 34003KT 3SM BR OVC002 16/13 A3002 RMK AO2





000
SAUS46 KLOX 171454
MTRLAX
METAR KLAX 171453Z 22004KT 10SM CLR 21/17 A2997 RMK AO2 SLP148
T02110167 51008





000
SAUS46 KLOX 171454
MTRMWS
METAR KMWS 171445Z 30005G07KT 23/04 RMK SNOW DEPTH  M





000
SAUS46 KLOX 171453
MTRSMX
METAR KSMX 171451Z 30003KT 2SM BR OVC002 16/13 A3002 RMK AO2 SLP168
T01560133 53010





000
SAUS46 KLOX 171449
MTRSDB
METAR KSDB 171448Z AUTO 32005KT 10SM CLR 26/00 A3019 RMK AO2 SLP158
T02560000 53006





000
SAUS46 KLOX 171448
MTRCQT
METAR KCQT 171447Z AUTO 00000KT 10SM CLR 22/17 A2996 RMK AO2 SLP144
T02220167 51006





000
SAUS46 KLOX 171436
MTRMWS
METAR KMWS 171430Z 23500G00KT MM/04 RMK SNOW DEPTH  M





000
SAUS46 KLOX 171415
MTRMWS
METAR KMWS 171400Z 29507G09KT 21/03 RMK SNOW DEPTH  M





000
SAUS46 KLOX 171400
MTRSMX
SPECI KSMX 171359Z 29003KT 1SM BR OVC002 16/13 A3001 RMK AO2





000
SAUS46 KLOX 171357
MTRMWS
METAR KMWS 171345Z 29505G08KT 22/03 RMK SNOW DEPTH  M





000
SAUS46 KLOX 171357 COR
MTRSMX
METAR KSMX 171351Z 00000KT 1 1/2SM BR OVC002 16/13 A3001 RMK AO2
SLP163 T01560133





000
SAUS46 KLOX 171356
MTR9L2
METAR K9L2 171355Z AUTO 35003KT 10SM CLR 17/01 A3001 RMK AO2 SLP142
T01720006 TSNO $





000
SAUS46 KLOX 171356 COR
MTRLAX
METAR KLAX 171353Z 17003KT 10SM CLR 20/17 A2997 RMK AO2 SLP146
T02000167





000
SAUS46 KLOX 171352 COR
MTRSDB
METAR KSDB 171348Z AUTO 32006KT 10SM CLR 25/M01 A3018 RMK AO2 SLP153
T02501011





000
SAUS46 KLOX 171349
MTRCQT
METAR KCQT 171347Z AUTO 00000KT 10SM CLR 19/16 A2996 RMK AO2 SLP143
T01940161





000
SAUS46 KLOX 171349
MTRSDB
METAR KSDB 171348Z AUTO 32006KT 10SM CLR 25/M01 A3018 RMK AO2 SLP153
T02501011





000
SAUS46 KLOX 171336
MTRMWS
METAR KMWS 171330Z 23500G00KT MM/03 RMK SNOW DEPTH  M





000
SAUS46 KLOX 171328
MTRSMX
SPECI KSMX 171326Z 00000KT 2 1/2SM BR OVC002 16/14 A3000 RMK AO2





000
SAUS46 KLOX 171315
MTRMWS
METAR KMWS 171300Z 25503G08KT 21/02 RMK SNOW DEPTH  M





000
SAUS46 KLOX 171257
MTR9L2
METAR K9L2 171255Z AUTO 00000KT 10SM CLR 16/00 A2999 RMK AO2 SLP137
T01560000 TSNO $





000
SAUS46 KLOX 171254
MTRMWS
METAR KMWS 171245Z 23500G00KT MM/02 RMK SNOW DEPTH  M





000
SAUS46 KLOX 171254
MTRLAX
METAR KLAX 171253Z 18004KT 10SM CLR 19/17 A2996 RMK AO2 SLP142
T01940172





000
SAUS46 KLOX 171253
MTRSMX
METAR KSMX 171251Z AUTO 00000KT 4SM BR OVC004 16/14 A3000 RMK AO2
SLP160 T01560139 TSNO





000
SAUS46 KLOX 171249
MTRSDB
METAR KSDB 171248Z AUTO 32007KT 10SM CLR 23/M01 A3017 RMK AO2 SLP149
T02331006





000
SAUS46 KLOX 171248
MTRCQT
METAR KCQT 171247Z AUTO 00000KT 10SM CLR 19/16 A2995 RMK AO2 SLP140
T01940161





000
SAUS46 KLOX 171236
MTRMWS
METAR KMWS 171230Z 23500G00KT MM/01 RMK SNOW DEPTH  M





000
SAUS46 KLOX 171215
MTRMWS
METAR KMWS 171200Z 27505G08KT 22/03 RMK SNOW DEPTH  M





000
SAUS46 KLOX 171159
MTR9L2
METAR K9L2 171155Z AUTO 00000KT 10SM CLR 18/00 A2998 RMK AO2 SLP132
T01780000 10278 20167 53001 TSNO $





000
SAUS46 KLOX 171154
MTRMWS
METAR KMWS 171145Z 26505G08KT 22/01 RMK SNOW DEPTH  M





000
SAUS46 KLOX 171154
MTRLAX
METAR KLAX 171153Z AUTO 16003KT 10SM CLR 20/17 A2995 RMK AO2 SLP140
T02000172 10211 20200 53004 TSNO





000
SAUS46 KLOX 171153
MTRSMX
METAR KSMX 171151Z AUTO 29004KT 6SM BR OVC004 16/13 A2999 RMK AO2
SLP157 T01560133 10167 20144 53001 TSNO





000
SAUS46 KLOX 171149
MTRSDB
METAR KSDB 171148Z AUTO 30006KT 10SM CLR 24/M01 A3016 RMK AO2 SLP144
T02441011 10256 20222 57003





000
SAUS46 KLOX 171148
MTRCQT
METAR KCQT 171147Z AUTO 00000KT 10SM CLR 19/16 A2995 RMK AO2 SLP138
T01940161 10217 20194 53004





000
SAUS46 KLOX 171136
MTRMWS
METAR KMWS 171130Z 23500G00KT MM/01 RMK SNOW DEPTH  M





000
SAUS46 KLOX 171115
MTRMWS
METAR KMWS 171100Z 25505G08KT 21/01 RMK SNOW DEPTH  M





000
SAUS46 KLOX 171057
MTR9L2
METAR K9L2 171055Z AUTO 00000KT 10SM CLR 19/01 A2998 RMK AO2 SLP129
T01890006 TSNO $





000
SAUS46 KLOX 171054
MTRLAX
METAR KLAX 171053Z AUTO 20005KT 10SM CLR 20/17 A2995 RMK AO2 SLP138
T02000172 TSNO





000
SAUS46 KLOX 171054
MTRMWS
METAR KMWS 171045Z 26007G09KT 22/02 RMK SNOW DEPTH  M





000
SAUS46 KLOX 171052
MTRSMX
METAR KSMX 171051Z AUTO 31004KT 7SM OVC004 17/14 A2999 RMK AO2
SLP155 T01670139 TSNO





000
SAUS46 KLOX 171049
MTRSDB
METAR KSDB 171048Z AUTO 33014KT 10SM CLR 23/02 A3017 RMK AO2 SLP146
T02280022





000
SAUS46 KLOX 171049
MTRCQT
METAR KCQT 171047Z AUTO 00000KT 10SM CLR 20/16 A2994 RMK AO2 SLP136
T02000161





000
SAUS46 KLOX 171036
MTRMWS
METAR KMWS 171030Z 23500G00KT MM/02 RMK SNOW DEPTH  M





000
SAUS46 KLOX 171015
MTRMWS
METAR KMWS 171000Z 26008G10KT 22/02 RMK SNOW DEPTH  M





000
SAUS46 KLOX 170959
MTR9L2
METAR K9L2 170955Z AUTO 00000KT 10SM CLR 19/M01 A2998 RMK AO2 SLP129
T01941006 TSNO $





000
SAUS46 KLOX 170957
MTRMWS
METAR KMWS 170945Z 25509G10KT 22/02 RMK SNOW DEPTH  M





000
SAUS46 KLOX 170955
MTRLAX
METAR KLAX 170953Z AUTO 15003KT 10SM CLR 20/17 A2994 RMK AO2 SLP135
T02000172 TSNO





000
SAUS46 KLOX 170953
MTRSMX
METAR KSMX 170951Z AUTO 30003KT 5SM BR OVC004 16/14 A2999 RMK AO2
SLP155 T01610139 TSNO





000
SAUS46 KLOX 170949
MTRSDB
METAR KSDB 170948Z AUTO 32017KT 10SM CLR 23/02 A3017 RMK AO2 SLP149
T02280022





000
SAUS46 KLOX 170948
MTRCQT
METAR KCQT 170947Z AUTO 00000KT 10SM CLR 20/16 A2993 RMK AO2 SLP133
T02000156





000
SAUS46 KLOX 170936
MTRMWS
METAR KMWS 170930Z 23500G00KT MM/02 RMK SNOW DEPTH  M





000
SAUS46 KLOX 170915
MTRMWS
METAR KMWS 170900Z 28502G03KT 21/03 RMK SNOW DEPTH  M





000
SAUS46 KLOX 170901
MTRSMX
SPECI KSMX 170859Z AUTO 00000KT 7SM BKN004 BKN009 16/13 A2999 RMK
AO2 TSNO





000
SAUS46 KLOX 170857
MTR9L2
METAR K9L2 170855Z AUTO 20004KT 10SM CLR 22/02 A2998 RMK AO2 SLP129
T02170017 57001 $





000
SAUS46 KLOX 170855
MTRLAX
METAR KLAX 170853Z AUTO 19004KT 10SM CLR 20/17 A2994 RMK AO2 SLP136
T02000172 50000 TSNO





000
SAUS46 KLOX 170854
MTRMWS
METAR KMWS 170845Z 23500G00KT MM/02 RMK SNOW DEPTH  M





000
SAUS46 KLOX 170852
MTRSMX
METAR KSMX 170851Z AUTO 00000KT 8SM FEW004 SCT009 15/12 A2999 RMK
AO2 SLP156 T01500122 58003 TSNO





000
SAUS46 KLOX 170849
MTRSDB
METAR KSDB 170848Z AUTO 34015KT 10SM CLR 23/02 A3017 RMK AO2 SLP147
T02330022 58004





000
SAUS46 KLOX 170848
MTRCQT
METAR KCQT 170847Z AUTO 00000KT 10SM CLR 21/15 A2993 RMK AO2 SLP132
T02060150 58001





000
SAUS46 KLOX 170836
MTRMWS
METAR KMWS 170830Z 23500G00KT MM/01 RMK SNOW DEPTH  M





000
SAUS46 KLOX 170815
MTRMWS
METAR KMWS 170800Z 27502G04KT 20/02 RMK SNOW DEPTH  M





000
SAUS46 KLOX 170756
MTR9L2
METAR K9L2 170755Z AUTO 00000KT 10SM CLR 25/02 A2998 RMK AO2 SLP127
T02500022 403890183 TSNO $





000
SAUS46 KLOX 170754
MTRMWS
METAR KMWS 170745Z 03000G02KT 20/02 RMK SNOW DEPTH  M





000
SAUS46 KLOX 170754
MTRLAX
METAR KLAX 170753Z 26003KT 10SM CLR 20/17 A2995 RMK AO2 SLP138
T02000167 402500194





000
SAUS46 KLOX 170752
MTRSMX
METAR KSMX 170751Z AUTO 00000KT 9SM CLR 16/13 A3000 RMK AO2 SLP158
T01610133 402720156 TSNO





000
SAUS46 KLOX 170749
MTRSDB
METAR KSDB 170748Z AUTO 34015KT 10SM CLR 24/01 A3018 RMK AO2 SLP151
T02390011 403440211





000
SAUS46 KLOX 170748
MTRCQT
METAR KCQT 170747Z AUTO 00000KT 10SM CLR 21/15 A2994 RMK AO2 SLP134
T02060150 403220189





000
SAUS46 KLOX 170736
MTRMWS
METAR KMWS 170730Z 23500G00KT MM/03 RMK SNOW DEPTH  M





000
SAUS46 KLOX 170715
MTRMWS
METAR KMWS 170700Z 25502G03KT 21/03 RMK SNOW DEPTH  M





    US Dept of Commerce
    National Oceanic and Atmospheric Administration
    National Weather Service
    1325 East West Highway
    Silver Spring, MD 20910
    Page Author: NWS Internet Services Team
Disclaimer
Information Quality
Credits
Glossary
Privacy Policy
Freedom of Information Act (FOIA)
About Us
Career Opportunities